<?xml version="1.0" encoding="UTF-8" standalone="no" ?>
<gpx xmlns="http://www.topografix.com/GPX/1/1" xmlns:xsi="http://www.w3.org/2001/XMLSchema-instance" xsi:schemaLocation="http://www.topografix.com/GPX/1/1 http://www.topografix.com/GPX/1/1/gpx.xsd" version="1.1" creator="VisuGPX - https://www.visugpx.com">
  <metadata>
    <name>2025-01-04  Randonnée TwoNav</name>
    <desc><![CDATA[2025-01-04_132002.trk]]></desc>
  </metadata>
  <trk>
    <name><![CDATA[2025-01-04  Randonnée TwoNav_1]]></name>
    <trkseg>
      <trkpt lat="50.17716" lon="4.17231">
        <ele>203</ele>
        <time>2025-01-04T12:20:02Z</time>
      </trkpt>
      <trkpt lat="50.17713" lon="4.17226">
        <ele>203.1</ele>
        <time>2025-01-04T12:20:03Z</time>
      </trkpt>
      <trkpt lat="50.17711" lon="4.17223">
        <ele>203.2</ele>
        <time>2025-01-04T12:20:04Z</time>
      </trkpt>
      <trkpt lat="50.17714" lon="4.17226">
        <ele>203.2</ele>
        <time>2025-01-04T12:20:05Z</time>
      </trkpt>
      <trkpt lat="50.17718" lon="4.17229">
        <ele>203.3</ele>
        <time>2025-01-04T12:20:06Z</time>
      </trkpt>
      <trkpt lat="50.17717" lon="4.17227">
        <ele>203.3</ele>
        <time>2025-01-04T12:20:07Z</time>
      </trkpt>
      <trkpt lat="50.17718" lon="4.17224">
        <ele>203.4</ele>
        <time>2025-01-04T12:20:08Z</time>
      </trkpt>
      <trkpt lat="50.17718" lon="4.17223">
        <ele>203.4</ele>
        <time>2025-01-04T12:20:09Z</time>
      </trkpt>
      <trkpt lat="50.17718" lon="4.17222">
        <ele>203.4</ele>
        <time>2025-01-04T12:20:10Z</time>
      </trkpt>
      <trkpt lat="50.17718" lon="4.1722">
        <ele>203.4</ele>
        <time>2025-01-04T12:20:11Z</time>
      </trkpt>
      <trkpt lat="50.17718" lon="4.17219">
        <ele>203.4</ele>
        <time>2025-01-04T12:20:12Z</time>
      </trkpt>
      <trkpt lat="50.17718" lon="4.17217">
        <ele>203.5</ele>
        <time>2025-01-04T12:20:13Z</time>
      </trkpt>
      <trkpt lat="50.17718" lon="4.17215">
        <ele>203.5</ele>
        <time>2025-01-04T12:20:14Z</time>
      </trkpt>
      <trkpt lat="50.17719" lon="4.17214">
        <ele>203.5</ele>
        <time>2025-01-04T12:20:15Z</time>
      </trkpt>
      <trkpt lat="50.17718" lon="4.17199">
        <ele>203.7</ele>
        <time>2025-01-04T12:20:26Z</time>
      </trkpt>
      <trkpt lat="50.17717" lon="4.17185">
        <ele>204</ele>
        <time>2025-01-04T12:20:37Z</time>
      </trkpt>
      <trkpt lat="50.17717" lon="4.1717">
        <ele>204.3</ele>
        <time>2025-01-04T12:20:47Z</time>
      </trkpt>
      <trkpt lat="50.17716" lon="4.17154">
        <ele>204.8</ele>
        <time>2025-01-04T12:20:58Z</time>
      </trkpt>
      <trkpt lat="50.17718" lon="4.17144">
        <ele>204.8</ele>
        <time>2025-01-04T12:21:11Z</time>
      </trkpt>
      <trkpt lat="50.17719" lon="4.17144">
        <ele>204.8</ele>
        <time>2025-01-04T12:21:12Z</time>
      </trkpt>
      <trkpt lat="50.17719" lon="4.17144">
        <ele>204.8</ele>
        <time>2025-01-04T12:21:13Z</time>
      </trkpt>
      <trkpt lat="50.1772" lon="4.17143">
        <ele>204.8</ele>
        <time>2025-01-04T12:21:14Z</time>
      </trkpt>
      <trkpt lat="50.1772" lon="4.17142">
        <ele>204.7</ele>
        <time>2025-01-04T12:21:15Z</time>
      </trkpt>
      <trkpt lat="50.1772" lon="4.17134">
        <ele>204.7</ele>
        <time>2025-01-04T12:21:25Z</time>
      </trkpt>
      <trkpt lat="50.1772" lon="4.17134">
        <ele>204.7</ele>
        <time>2025-01-04T12:21:26Z</time>
      </trkpt>
      <trkpt lat="50.17721" lon="4.17134">
        <ele>204.7</ele>
        <time>2025-01-04T12:21:27Z</time>
      </trkpt>
      <trkpt lat="50.17719" lon="4.17135">
        <ele>204.7</ele>
        <time>2025-01-04T12:21:33Z</time>
      </trkpt>
      <trkpt lat="50.17719" lon="4.17135">
        <ele>204.7</ele>
        <time>2025-01-04T12:21:34Z</time>
      </trkpt>
      <trkpt lat="50.17718" lon="4.17134">
        <ele>204.7</ele>
        <time>2025-01-04T12:21:35Z</time>
      </trkpt>
      <trkpt lat="50.17718" lon="4.17133">
        <ele>204.7</ele>
        <time>2025-01-04T12:21:36Z</time>
      </trkpt>
      <trkpt lat="50.17718" lon="4.17132">
        <ele>204.7</ele>
        <time>2025-01-04T12:21:37Z</time>
      </trkpt>
      <trkpt lat="50.17718" lon="4.17131">
        <ele>204.6</ele>
        <time>2025-01-04T12:21:48Z</time>
      </trkpt>
      <trkpt lat="50.17718" lon="4.17131">
        <ele>204.6</ele>
        <time>2025-01-04T12:21:49Z</time>
      </trkpt>
      <trkpt lat="50.17718" lon="4.17131">
        <ele>204.6</ele>
        <time>2025-01-04T12:21:53Z</time>
      </trkpt>
      <trkpt lat="50.17718" lon="4.17131">
        <ele>204.6</ele>
        <time>2025-01-04T12:21:54Z</time>
      </trkpt>
      <trkpt lat="50.17718" lon="4.17131">
        <ele>204.6</ele>
        <time>2025-01-04T12:21:55Z</time>
      </trkpt>
      <trkpt lat="50.17718" lon="4.17132">
        <ele>204.6</ele>
        <time>2025-01-04T12:22:26Z</time>
      </trkpt>
      <trkpt lat="50.17719" lon="4.17117">
        <ele>204.4</ele>
        <time>2025-01-04T12:22:41Z</time>
      </trkpt>
      <trkpt lat="50.17721" lon="4.17103">
        <ele>204.2</ele>
        <time>2025-01-04T12:22:54Z</time>
      </trkpt>
      <trkpt lat="50.17722" lon="4.17087">
        <ele>203.9</ele>
        <time>2025-01-04T12:23:07Z</time>
      </trkpt>
      <trkpt lat="50.17721" lon="4.17072">
        <ele>203.7</ele>
        <time>2025-01-04T12:23:16Z</time>
      </trkpt>
      <trkpt lat="50.17722" lon="4.17067">
        <ele>203.6</ele>
        <time>2025-01-04T12:23:24Z</time>
      </trkpt>
      <trkpt lat="50.17722" lon="4.17067">
        <ele>203.6</ele>
        <time>2025-01-04T12:23:25Z</time>
      </trkpt>
      <trkpt lat="50.17723" lon="4.17065">
        <ele>203.6</ele>
        <time>2025-01-04T12:23:36Z</time>
      </trkpt>
      <trkpt lat="50.17723" lon="4.17064">
        <ele>203.6</ele>
        <time>2025-01-04T12:23:37Z</time>
      </trkpt>
      <trkpt lat="50.17723" lon="4.17063">
        <ele>203.5</ele>
        <time>2025-01-04T12:23:38Z</time>
      </trkpt>
      <trkpt lat="50.17725" lon="4.17049">
        <ele>203.4</ele>
        <time>2025-01-04T12:23:50Z</time>
      </trkpt>
      <trkpt lat="50.17726" lon="4.17048">
        <ele>203.3</ele>
        <time>2025-01-04T12:23:54Z</time>
      </trkpt>
      <trkpt lat="50.17726" lon="4.17048">
        <ele>203.3</ele>
        <time>2025-01-04T12:23:55Z</time>
      </trkpt>
      <trkpt lat="50.17726" lon="4.17049">
        <ele>203.3</ele>
        <time>2025-01-04T12:23:56Z</time>
      </trkpt>
      <trkpt lat="50.17727" lon="4.1705">
        <ele>203.3</ele>
        <time>2025-01-04T12:23:57Z</time>
      </trkpt>
      <trkpt lat="50.17722" lon="4.17064">
        <ele>203.2</ele>
        <time>2025-01-04T12:24:12Z</time>
      </trkpt>
      <trkpt lat="50.17722" lon="4.17069">
        <ele>203.1</ele>
        <time>2025-01-04T12:24:24Z</time>
      </trkpt>
      <trkpt lat="50.17722" lon="4.17069">
        <ele>203.1</ele>
        <time>2025-01-04T12:24:25Z</time>
      </trkpt>
      <trkpt lat="50.17723" lon="4.17069">
        <ele>203.1</ele>
        <time>2025-01-04T12:24:30Z</time>
      </trkpt>
      <trkpt lat="50.17722" lon="4.17069">
        <ele>203.1</ele>
        <time>2025-01-04T12:24:31Z</time>
      </trkpt>
      <trkpt lat="50.17722" lon="4.1707">
        <ele>203.1</ele>
        <time>2025-01-04T12:24:32Z</time>
      </trkpt>
      <trkpt lat="50.17721" lon="4.17075">
        <ele>203.2</ele>
        <time>2025-01-04T12:24:44Z</time>
      </trkpt>
      <trkpt lat="50.17721" lon="4.17075">
        <ele>203.2</ele>
        <time>2025-01-04T12:24:45Z</time>
      </trkpt>
      <trkpt lat="50.17717" lon="4.17076">
        <ele>203.2</ele>
        <time>2025-01-04T12:25:39Z</time>
      </trkpt>
      <trkpt lat="50.17717" lon="4.17076">
        <ele>203.2</ele>
        <time>2025-01-04T12:25:40Z</time>
      </trkpt>
      <trkpt lat="50.17717" lon="4.17076">
        <ele>203.2</ele>
        <time>2025-01-04T12:25:41Z</time>
      </trkpt>
      <trkpt lat="50.17717" lon="4.17076">
        <ele>203.2</ele>
        <time>2025-01-04T12:25:42Z</time>
      </trkpt>
      <trkpt lat="50.17717" lon="4.17076">
        <ele>203.2</ele>
        <time>2025-01-04T12:25:43Z</time>
      </trkpt>
      <trkpt lat="50.17719" lon="4.17082">
        <ele>203.4</ele>
        <time>2025-01-04T12:26:09Z</time>
      </trkpt>
      <trkpt lat="50.17719" lon="4.17083">
        <ele>203.4</ele>
        <time>2025-01-04T12:26:10Z</time>
      </trkpt>
      <trkpt lat="50.17715" lon="4.17097">
        <ele>203.7</ele>
        <time>2025-01-04T12:26:20Z</time>
      </trkpt>
      <trkpt lat="50.17718" lon="4.17111">
        <ele>204.1</ele>
        <time>2025-01-04T12:26:29Z</time>
      </trkpt>
      <trkpt lat="50.17717" lon="4.17126">
        <ele>204.5</ele>
        <time>2025-01-04T12:26:38Z</time>
      </trkpt>
      <trkpt lat="50.1772" lon="4.1714">
        <ele>204.7</ele>
        <time>2025-01-04T12:26:47Z</time>
      </trkpt>
      <trkpt lat="50.17724" lon="4.17145">
        <ele>204.8</ele>
        <time>2025-01-04T12:26:59Z</time>
      </trkpt>
      <trkpt lat="50.17724" lon="4.17145">
        <ele>204.8</ele>
        <time>2025-01-04T12:27:00Z</time>
      </trkpt>
      <trkpt lat="50.17726" lon="4.17145">
        <ele>204.8</ele>
        <time>2025-01-04T12:27:09Z</time>
      </trkpt>
      <trkpt lat="50.17727" lon="4.17145">
        <ele>204.8</ele>
        <time>2025-01-04T12:27:10Z</time>
      </trkpt>
      <trkpt lat="50.17735" lon="4.17151">
        <ele>205</ele>
        <time>2025-01-04T12:27:23Z</time>
      </trkpt>
      <trkpt lat="50.17745" lon="4.17154">
        <ele>205.1</ele>
        <time>2025-01-04T12:27:37Z</time>
      </trkpt>
      <trkpt lat="50.17754" lon="4.1715">
        <ele>205.3</ele>
        <time>2025-01-04T12:27:48Z</time>
      </trkpt>
      <trkpt lat="50.17763" lon="4.17144">
        <ele>205.4</ele>
        <time>2025-01-04T12:27:57Z</time>
      </trkpt>
      <trkpt lat="50.17771" lon="4.17138">
        <ele>205.4</ele>
        <time>2025-01-04T12:28:07Z</time>
      </trkpt>
      <trkpt lat="50.1778" lon="4.17132">
        <ele>205.5</ele>
        <time>2025-01-04T12:28:17Z</time>
      </trkpt>
      <trkpt lat="50.17785" lon="4.17126">
        <ele>205.5</ele>
        <time>2025-01-04T12:28:34Z</time>
      </trkpt>
      <trkpt lat="50.17785" lon="4.17126">
        <ele>205.5</ele>
        <time>2025-01-04T12:28:35Z</time>
      </trkpt>
      <trkpt lat="50.17785" lon="4.17125">
        <ele>205.5</ele>
        <time>2025-01-04T12:28:36Z</time>
      </trkpt>
      <trkpt lat="50.17786" lon="4.17125">
        <ele>205.5</ele>
        <time>2025-01-04T12:28:37Z</time>
      </trkpt>
      <trkpt lat="50.17786" lon="4.17124">
        <ele>205.5</ele>
        <time>2025-01-04T12:28:38Z</time>
      </trkpt>
      <trkpt lat="50.17796" lon="4.17123">
        <ele>205.4</ele>
        <time>2025-01-04T12:28:53Z</time>
      </trkpt>
      <trkpt lat="50.17805" lon="4.17119">
        <ele>205.1</ele>
        <time>2025-01-04T12:29:00Z</time>
      </trkpt>
      <trkpt lat="50.17815" lon="4.17119">
        <ele>204.7</ele>
        <time>2025-01-04T12:29:17Z</time>
      </trkpt>
      <trkpt lat="50.17824" lon="4.17122">
        <ele>204.3</ele>
        <time>2025-01-04T12:29:30Z</time>
      </trkpt>
      <trkpt lat="50.17833" lon="4.17124">
        <ele>204</ele>
        <time>2025-01-04T12:29:44Z</time>
      </trkpt>
      <trkpt lat="50.17843" lon="4.17127">
        <ele>203.6</ele>
        <time>2025-01-04T12:29:56Z</time>
      </trkpt>
      <trkpt lat="50.17853" lon="4.17127">
        <ele>203.3</ele>
        <time>2025-01-04T12:30:08Z</time>
      </trkpt>
      <trkpt lat="50.17862" lon="4.1713">
        <ele>203</ele>
        <time>2025-01-04T12:30:20Z</time>
      </trkpt>
      <trkpt lat="50.17871" lon="4.17135">
        <ele>202.7</ele>
        <time>2025-01-04T12:30:29Z</time>
      </trkpt>
      <trkpt lat="50.17876" lon="4.17136">
        <ele>202.6</ele>
        <time>2025-01-04T12:30:39Z</time>
      </trkpt>
      <trkpt lat="50.17876" lon="4.17136">
        <ele>202.6</ele>
        <time>2025-01-04T12:30:40Z</time>
      </trkpt>
      <trkpt lat="50.17876" lon="4.17136">
        <ele>202.5</ele>
        <time>2025-01-04T12:30:41Z</time>
      </trkpt>
      <trkpt lat="50.17876" lon="4.17137">
        <ele>202.5</ele>
        <time>2025-01-04T12:30:42Z</time>
      </trkpt>
      <trkpt lat="50.17876" lon="4.17138">
        <ele>202.5</ele>
        <time>2025-01-04T12:30:43Z</time>
      </trkpt>
      <trkpt lat="50.17884" lon="4.17144">
        <ele>202.3</ele>
        <time>2025-01-04T12:30:53Z</time>
      </trkpt>
      <trkpt lat="50.17894" lon="4.17148">
        <ele>202.2</ele>
        <time>2025-01-04T12:31:03Z</time>
      </trkpt>
      <trkpt lat="50.17902" lon="4.17155">
        <ele>202.2</ele>
        <time>2025-01-04T12:31:14Z</time>
      </trkpt>
      <trkpt lat="50.17909" lon="4.17163">
        <ele>202.2</ele>
        <time>2025-01-04T12:31:26Z</time>
      </trkpt>
      <trkpt lat="50.17917" lon="4.17171">
        <ele>202.4</ele>
        <time>2025-01-04T12:31:36Z</time>
      </trkpt>
      <trkpt lat="50.17926" lon="4.17177">
        <ele>202.5</ele>
        <time>2025-01-04T12:31:48Z</time>
      </trkpt>
      <trkpt lat="50.17935" lon="4.17183">
        <ele>202.6</ele>
        <time>2025-01-04T12:31:57Z</time>
      </trkpt>
      <trkpt lat="50.17943" lon="4.1719">
        <ele>202.8</ele>
        <time>2025-01-04T12:32:09Z</time>
      </trkpt>
      <trkpt lat="50.17952" lon="4.17195">
        <ele>202.8</ele>
        <time>2025-01-04T12:32:23Z</time>
      </trkpt>
      <trkpt lat="50.17959" lon="4.17204">
        <ele>202.8</ele>
        <time>2025-01-04T12:32:38Z</time>
      </trkpt>
      <trkpt lat="50.17967" lon="4.17214">
        <ele>202.7</ele>
        <time>2025-01-04T12:32:48Z</time>
      </trkpt>
      <trkpt lat="50.17975" lon="4.17222">
        <ele>202.6</ele>
        <time>2025-01-04T12:32:57Z</time>
      </trkpt>
      <trkpt lat="50.17977" lon="4.17225">
        <ele>202.6</ele>
        <time>2025-01-04T12:33:06Z</time>
      </trkpt>
      <trkpt lat="50.17977" lon="4.17225">
        <ele>202.6</ele>
        <time>2025-01-04T12:33:07Z</time>
      </trkpt>
      <trkpt lat="50.17977" lon="4.17226">
        <ele>202.6</ele>
        <time>2025-01-04T12:33:08Z</time>
      </trkpt>
      <trkpt lat="50.17977" lon="4.17227">
        <ele>202.6</ele>
        <time>2025-01-04T12:33:09Z</time>
      </trkpt>
      <trkpt lat="50.17978" lon="4.17228">
        <ele>202.6</ele>
        <time>2025-01-04T12:33:10Z</time>
      </trkpt>
      <trkpt lat="50.17985" lon="4.17238">
        <ele>202.5</ele>
        <time>2025-01-04T12:33:25Z</time>
      </trkpt>
      <trkpt lat="50.17993" lon="4.17246">
        <ele>202.5</ele>
        <time>2025-01-04T12:33:34Z</time>
      </trkpt>
      <trkpt lat="50.18" lon="4.17255">
        <ele>202.7</ele>
        <time>2025-01-04T12:33:43Z</time>
      </trkpt>
      <trkpt lat="50.18005" lon="4.1726">
        <ele>202.9</ele>
        <time>2025-01-04T12:33:54Z</time>
      </trkpt>
      <trkpt lat="50.18005" lon="4.1726">
        <ele>202.9</ele>
        <time>2025-01-04T12:33:55Z</time>
      </trkpt>
      <trkpt lat="50.18005" lon="4.17261">
        <ele>202.9</ele>
        <time>2025-01-04T12:34:01Z</time>
      </trkpt>
      <trkpt lat="50.18005" lon="4.17261">
        <ele>202.9</ele>
        <time>2025-01-04T12:34:02Z</time>
      </trkpt>
      <trkpt lat="50.18011" lon="4.17271">
        <ele>203.2</ele>
        <time>2025-01-04T12:34:12Z</time>
      </trkpt>
      <trkpt lat="50.18018" lon="4.17281">
        <ele>203.6</ele>
        <time>2025-01-04T12:34:21Z</time>
      </trkpt>
      <trkpt lat="50.18024" lon="4.17292">
        <ele>204.3</ele>
        <time>2025-01-04T12:34:34Z</time>
      </trkpt>
      <trkpt lat="50.18031" lon="4.17302">
        <ele>205</ele>
        <time>2025-01-04T12:34:46Z</time>
      </trkpt>
      <trkpt lat="50.18031" lon="4.17301">
        <ele>205.1</ele>
        <time>2025-01-04T12:34:51Z</time>
      </trkpt>
      <trkpt lat="50.18031" lon="4.17301">
        <ele>205.1</ele>
        <time>2025-01-04T12:34:52Z</time>
      </trkpt>
      <trkpt lat="50.18032" lon="4.17304">
        <ele>205.2</ele>
        <time>2025-01-04T12:34:58Z</time>
      </trkpt>
      <trkpt lat="50.18032" lon="4.17304">
        <ele>205.2</ele>
        <time>2025-01-04T12:34:59Z</time>
      </trkpt>
      <trkpt lat="50.18041" lon="4.17311">
        <ele>205.9</ele>
        <time>2025-01-04T12:35:14Z</time>
      </trkpt>
      <trkpt lat="50.1805" lon="4.17315">
        <ele>206.3</ele>
        <time>2025-01-04T12:35:24Z</time>
      </trkpt>
      <trkpt lat="50.18053" lon="4.17315">
        <ele>206.4</ele>
        <time>2025-01-04T12:35:30Z</time>
      </trkpt>
      <trkpt lat="50.18053" lon="4.17315">
        <ele>206.5</ele>
        <time>2025-01-04T12:35:31Z</time>
      </trkpt>
      <trkpt lat="50.18053" lon="4.17315">
        <ele>206.5</ele>
        <time>2025-01-04T12:35:32Z</time>
      </trkpt>
      <trkpt lat="50.18053" lon="4.17316">
        <ele>206.5</ele>
        <time>2025-01-04T12:35:33Z</time>
      </trkpt>
      <trkpt lat="50.18054" lon="4.17316">
        <ele>206.5</ele>
        <time>2025-01-04T12:35:34Z</time>
      </trkpt>
      <trkpt lat="50.18054" lon="4.17316">
        <ele>206.5</ele>
        <time>2025-01-04T12:35:35Z</time>
      </trkpt>
      <trkpt lat="50.18064" lon="4.17319">
        <ele>206.8</ele>
        <time>2025-01-04T12:35:47Z</time>
      </trkpt>
      <trkpt lat="50.18073" lon="4.17321">
        <ele>207.1</ele>
        <time>2025-01-04T12:35:58Z</time>
      </trkpt>
      <trkpt lat="50.18082" lon="4.17324">
        <ele>207.2</ele>
        <time>2025-01-04T12:36:08Z</time>
      </trkpt>
      <trkpt lat="50.18091" lon="4.17327">
        <ele>207.2</ele>
        <time>2025-01-04T12:36:21Z</time>
      </trkpt>
      <trkpt lat="50.18091" lon="4.17326">
        <ele>207.2</ele>
        <time>2025-01-04T12:36:26Z</time>
      </trkpt>
      <trkpt lat="50.18091" lon="4.17326">
        <ele>207.2</ele>
        <time>2025-01-04T12:36:27Z</time>
      </trkpt>
      <trkpt lat="50.18091" lon="4.17326">
        <ele>207.2</ele>
        <time>2025-01-04T12:36:28Z</time>
      </trkpt>
      <trkpt lat="50.18092" lon="4.17327">
        <ele>207.3</ele>
        <time>2025-01-04T12:36:34Z</time>
      </trkpt>
      <trkpt lat="50.18093" lon="4.17327">
        <ele>207.3</ele>
        <time>2025-01-04T12:36:35Z</time>
      </trkpt>
      <trkpt lat="50.18102" lon="4.17332">
        <ele>207.3</ele>
        <time>2025-01-04T12:36:48Z</time>
      </trkpt>
      <trkpt lat="50.18111" lon="4.17332">
        <ele>207.3</ele>
        <time>2025-01-04T12:36:59Z</time>
      </trkpt>
      <trkpt lat="50.18112" lon="4.17332">
        <ele>207.3</ele>
        <time>2025-01-04T12:37:01Z</time>
      </trkpt>
      <trkpt lat="50.18112" lon="4.17332">
        <ele>207.3</ele>
        <time>2025-01-04T12:37:02Z</time>
      </trkpt>
      <trkpt lat="50.18112" lon="4.17331">
        <ele>207.3</ele>
        <time>2025-01-04T12:37:19Z</time>
      </trkpt>
      <trkpt lat="50.18113" lon="4.17332">
        <ele>207.3</ele>
        <time>2025-01-04T12:37:20Z</time>
      </trkpt>
      <trkpt lat="50.18122" lon="4.17334">
        <ele>207.3</ele>
        <time>2025-01-04T12:37:30Z</time>
      </trkpt>
      <trkpt lat="50.18132" lon="4.17336">
        <ele>207.3</ele>
        <time>2025-01-04T12:37:40Z</time>
      </trkpt>
      <trkpt lat="50.18141" lon="4.17339">
        <ele>207.3</ele>
        <time>2025-01-04T12:37:49Z</time>
      </trkpt>
      <trkpt lat="50.1815" lon="4.17341">
        <ele>207.3</ele>
        <time>2025-01-04T12:37:57Z</time>
      </trkpt>
      <trkpt lat="50.1816" lon="4.17341">
        <ele>207.4</ele>
        <time>2025-01-04T12:38:08Z</time>
      </trkpt>
      <trkpt lat="50.18164" lon="4.1734">
        <ele>207.4</ele>
        <time>2025-01-04T12:38:21Z</time>
      </trkpt>
      <trkpt lat="50.18164" lon="4.1734">
        <ele>207.3</ele>
        <time>2025-01-04T12:38:22Z</time>
      </trkpt>
      <trkpt lat="50.18164" lon="4.1734">
        <ele>207.2</ele>
        <time>2025-01-04T12:38:23Z</time>
      </trkpt>
      <trkpt lat="50.18166" lon="4.17341">
        <ele>207.1</ele>
        <time>2025-01-04T12:38:29Z</time>
      </trkpt>
      <trkpt lat="50.18167" lon="4.17341">
        <ele>207</ele>
        <time>2025-01-04T12:38:30Z</time>
      </trkpt>
      <trkpt lat="50.18177" lon="4.17341">
        <ele>207.1</ele>
        <time>2025-01-04T12:38:40Z</time>
      </trkpt>
      <trkpt lat="50.18186" lon="4.17341">
        <ele>207</ele>
        <time>2025-01-04T12:38:50Z</time>
      </trkpt>
      <trkpt lat="50.18195" lon="4.17342">
        <ele>207</ele>
        <time>2025-01-04T12:39:01Z</time>
      </trkpt>
      <trkpt lat="50.18196" lon="4.17341">
        <ele>206.9</ele>
        <time>2025-01-04T12:39:09Z</time>
      </trkpt>
      <trkpt lat="50.18196" lon="4.17341">
        <ele>206.8</ele>
        <time>2025-01-04T12:39:10Z</time>
      </trkpt>
      <trkpt lat="50.18199" lon="4.17341">
        <ele>206.7</ele>
        <time>2025-01-04T12:39:14Z</time>
      </trkpt>
      <trkpt lat="50.182" lon="4.17341">
        <ele>206.6</ele>
        <time>2025-01-04T12:39:15Z</time>
      </trkpt>
      <trkpt lat="50.18209" lon="4.1734">
        <ele>206.5</ele>
        <time>2025-01-04T12:39:26Z</time>
      </trkpt>
      <trkpt lat="50.18219" lon="4.1734">
        <ele>206.5</ele>
        <time>2025-01-04T12:39:37Z</time>
      </trkpt>
      <trkpt lat="50.1822" lon="4.17339">
        <ele>206.7</ele>
        <time>2025-01-04T12:39:41Z</time>
      </trkpt>
      <trkpt lat="50.1822" lon="4.17339">
        <ele>206.5</ele>
        <time>2025-01-04T12:39:42Z</time>
      </trkpt>
      <trkpt lat="50.1822" lon="4.17339">
        <ele>206.4</ele>
        <time>2025-01-04T12:39:43Z</time>
      </trkpt>
      <trkpt lat="50.1822" lon="4.17339">
        <ele>206.3</ele>
        <time>2025-01-04T12:39:44Z</time>
      </trkpt>
      <trkpt lat="50.1822" lon="4.17339">
        <ele>206.2</ele>
        <time>2025-01-04T12:39:45Z</time>
      </trkpt>
      <trkpt lat="50.1822" lon="4.17339">
        <ele>206.1</ele>
        <time>2025-01-04T12:39:46Z</time>
      </trkpt>
      <trkpt lat="50.1822" lon="4.17339">
        <ele>206</ele>
        <time>2025-01-04T12:39:47Z</time>
      </trkpt>
      <trkpt lat="50.1822" lon="4.17339">
        <ele>205.9</ele>
        <time>2025-01-04T12:39:48Z</time>
      </trkpt>
      <trkpt lat="50.18221" lon="4.17339">
        <ele>205.8</ele>
        <time>2025-01-04T12:39:54Z</time>
      </trkpt>
      <trkpt lat="50.18221" lon="4.17339">
        <ele>205.7</ele>
        <time>2025-01-04T12:39:55Z</time>
      </trkpt>
      <trkpt lat="50.18221" lon="4.17339">
        <ele>205.6</ele>
        <time>2025-01-04T12:39:59Z</time>
      </trkpt>
      <trkpt lat="50.18221" lon="4.17339">
        <ele>205.5</ele>
        <time>2025-01-04T12:40:00Z</time>
      </trkpt>
      <trkpt lat="50.18225" lon="4.17337">
        <ele>205.4</ele>
        <time>2025-01-04T12:40:11Z</time>
      </trkpt>
      <trkpt lat="50.18226" lon="4.17337">
        <ele>205.2</ele>
        <time>2025-01-04T12:40:12Z</time>
      </trkpt>
      <trkpt lat="50.18227" lon="4.17337">
        <ele>205.1</ele>
        <time>2025-01-04T12:40:13Z</time>
      </trkpt>
      <trkpt lat="50.18237" lon="4.17336">
        <ele>204.9</ele>
        <time>2025-01-04T12:40:23Z</time>
      </trkpt>
      <trkpt lat="50.18246" lon="4.17333">
        <ele>204.9</ele>
        <time>2025-01-04T12:40:33Z</time>
      </trkpt>
      <trkpt lat="50.18256" lon="4.17332">
        <ele>204.4</ele>
        <time>2025-01-04T12:40:43Z</time>
      </trkpt>
      <trkpt lat="50.18265" lon="4.17329">
        <ele>204.1</ele>
        <time>2025-01-04T12:40:52Z</time>
      </trkpt>
      <trkpt lat="50.18269" lon="4.17322">
        <ele>204.1</ele>
        <time>2025-01-04T12:41:09Z</time>
      </trkpt>
      <trkpt lat="50.18269" lon="4.17322">
        <ele>204.1</ele>
        <time>2025-01-04T12:41:10Z</time>
      </trkpt>
      <trkpt lat="50.18268" lon="4.17321">
        <ele>204.2</ele>
        <time>2025-01-04T12:41:21Z</time>
      </trkpt>
      <trkpt lat="50.18268" lon="4.17321">
        <ele>204.3</ele>
        <time>2025-01-04T12:41:22Z</time>
      </trkpt>
      <trkpt lat="50.18268" lon="4.17319">
        <ele>204.3</ele>
        <time>2025-01-04T12:41:23Z</time>
      </trkpt>
      <trkpt lat="50.18265" lon="4.17306">
        <ele>205.3</ele>
        <time>2025-01-04T12:41:34Z</time>
      </trkpt>
      <trkpt lat="50.1826" lon="4.17297">
        <ele>206.1</ele>
        <time>2025-01-04T12:41:46Z</time>
      </trkpt>
      <trkpt lat="50.1826" lon="4.17297">
        <ele>206.1</ele>
        <time>2025-01-04T12:41:47Z</time>
      </trkpt>
      <trkpt lat="50.1826" lon="4.17297">
        <ele>206.1</ele>
        <time>2025-01-04T12:41:48Z</time>
      </trkpt>
      <trkpt lat="50.1826" lon="4.17294">
        <ele>206.3</ele>
        <time>2025-01-04T12:41:51Z</time>
      </trkpt>
      <trkpt lat="50.18259" lon="4.17293">
        <ele>206.4</ele>
        <time>2025-01-04T12:41:52Z</time>
      </trkpt>
      <trkpt lat="50.18259" lon="4.17291">
        <ele>206.5</ele>
        <time>2025-01-04T12:41:53Z</time>
      </trkpt>
      <trkpt lat="50.18255" lon="4.17278">
        <ele>207.5</ele>
        <time>2025-01-04T12:42:08Z</time>
      </trkpt>
      <trkpt lat="50.18252" lon="4.17264">
        <ele>208.3</ele>
        <time>2025-01-04T12:42:19Z</time>
      </trkpt>
      <trkpt lat="50.1825" lon="4.17251">
        <ele>209.2</ele>
        <time>2025-01-04T12:42:35Z</time>
      </trkpt>
      <trkpt lat="50.1825" lon="4.17251">
        <ele>209.2</ele>
        <time>2025-01-04T12:42:36Z</time>
      </trkpt>
      <trkpt lat="50.1825" lon="4.17251">
        <ele>209.2</ele>
        <time>2025-01-04T12:42:37Z</time>
      </trkpt>
      <trkpt lat="50.18249" lon="4.1725">
        <ele>209.3</ele>
        <time>2025-01-04T12:42:40Z</time>
      </trkpt>
      <trkpt lat="50.18248" lon="4.17249">
        <ele>209.4</ele>
        <time>2025-01-04T12:42:41Z</time>
      </trkpt>
      <trkpt lat="50.18248" lon="4.17247">
        <ele>209.5</ele>
        <time>2025-01-04T12:42:42Z</time>
      </trkpt>
      <trkpt lat="50.18244" lon="4.17234">
        <ele>210.5</ele>
        <time>2025-01-04T12:42:52Z</time>
      </trkpt>
      <trkpt lat="50.18244" lon="4.17233">
        <ele>210.6</ele>
        <time>2025-01-04T12:42:58Z</time>
      </trkpt>
      <trkpt lat="50.18244" lon="4.17233">
        <ele>210.6</ele>
        <time>2025-01-04T12:42:59Z</time>
      </trkpt>
      <trkpt lat="50.18244" lon="4.17232">
        <ele>210.7</ele>
        <time>2025-01-04T12:43:03Z</time>
      </trkpt>
      <trkpt lat="50.18244" lon="4.17231">
        <ele>210.8</ele>
        <time>2025-01-04T12:43:04Z</time>
      </trkpt>
      <trkpt lat="50.18244" lon="4.1723">
        <ele>210.9</ele>
        <time>2025-01-04T12:43:05Z</time>
      </trkpt>
      <trkpt lat="50.1824" lon="4.17217">
        <ele>211.8</ele>
        <time>2025-01-04T12:43:15Z</time>
      </trkpt>
      <trkpt lat="50.18237" lon="4.17205">
        <ele>212.7</ele>
        <time>2025-01-04T12:43:29Z</time>
      </trkpt>
      <trkpt lat="50.18237" lon="4.17205">
        <ele>212.7</ele>
        <time>2025-01-04T12:43:30Z</time>
      </trkpt>
      <trkpt lat="50.18236" lon="4.17203">
        <ele>212.8</ele>
        <time>2025-01-04T12:43:34Z</time>
      </trkpt>
      <trkpt lat="50.18235" lon="4.17201">
        <ele>213</ele>
        <time>2025-01-04T12:43:35Z</time>
      </trkpt>
      <trkpt lat="50.18234" lon="4.17198">
        <ele>213.1</ele>
        <time>2025-01-04T12:43:41Z</time>
      </trkpt>
      <trkpt lat="50.18234" lon="4.17198">
        <ele>213.1</ele>
        <time>2025-01-04T12:43:42Z</time>
      </trkpt>
      <trkpt lat="50.18233" lon="4.17198">
        <ele>213.3</ele>
        <time>2025-01-04T12:44:24Z</time>
      </trkpt>
      <trkpt lat="50.18233" lon="4.17199">
        <ele>213.3</ele>
        <time>2025-01-04T12:44:25Z</time>
      </trkpt>
      <trkpt lat="50.1823" lon="4.17185">
        <ele>214</ele>
        <time>2025-01-04T12:44:43Z</time>
      </trkpt>
      <trkpt lat="50.18225" lon="4.17172">
        <ele>214.7</ele>
        <time>2025-01-04T12:44:53Z</time>
      </trkpt>
      <trkpt lat="50.18221" lon="4.17166">
        <ele>215.1</ele>
        <time>2025-01-04T12:45:01Z</time>
      </trkpt>
      <trkpt lat="50.18221" lon="4.17166">
        <ele>215.1</ele>
        <time>2025-01-04T12:45:02Z</time>
      </trkpt>
      <trkpt lat="50.18221" lon="4.17166">
        <ele>215.1</ele>
        <time>2025-01-04T12:45:03Z</time>
      </trkpt>
      <trkpt lat="50.18221" lon="4.17166">
        <ele>215.1</ele>
        <time>2025-01-04T12:45:04Z</time>
      </trkpt>
      <trkpt lat="50.18221" lon="4.17165">
        <ele>215.1</ele>
        <time>2025-01-04T12:45:05Z</time>
      </trkpt>
      <trkpt lat="50.18217" lon="4.1716">
        <ele>215.4</ele>
        <time>2025-01-04T12:45:14Z</time>
      </trkpt>
      <trkpt lat="50.18217" lon="4.1716">
        <ele>215.4</ele>
        <time>2025-01-04T12:45:15Z</time>
      </trkpt>
      <trkpt lat="50.18218" lon="4.17161">
        <ele>215.5</ele>
        <time>2025-01-04T12:45:21Z</time>
      </trkpt>
      <trkpt lat="50.18219" lon="4.17162">
        <ele>215.5</ele>
        <time>2025-01-04T12:45:22Z</time>
      </trkpt>
      <trkpt lat="50.18219" lon="4.17163">
        <ele>215.6</ele>
        <time>2025-01-04T12:45:23Z</time>
      </trkpt>
      <trkpt lat="50.1822" lon="4.17164">
        <ele>215.6</ele>
        <time>2025-01-04T12:45:29Z</time>
      </trkpt>
      <trkpt lat="50.1822" lon="4.17164">
        <ele>215.6</ele>
        <time>2025-01-04T12:45:30Z</time>
      </trkpt>
      <trkpt lat="50.1822" lon="4.17164">
        <ele>215.6</ele>
        <time>2025-01-04T12:45:48Z</time>
      </trkpt>
      <trkpt lat="50.1822" lon="4.17164">
        <ele>215.6</ele>
        <time>2025-01-04T12:45:49Z</time>
      </trkpt>
      <trkpt lat="50.1822" lon="4.17164">
        <ele>215.6</ele>
        <time>2025-01-04T12:45:50Z</time>
      </trkpt>
      <trkpt lat="50.1822" lon="4.17164">
        <ele>215.6</ele>
        <time>2025-01-04T12:45:51Z</time>
      </trkpt>
      <trkpt lat="50.1822" lon="4.17164">
        <ele>215.6</ele>
        <time>2025-01-04T12:45:52Z</time>
      </trkpt>
      <trkpt lat="50.1822" lon="4.17164">
        <ele>215.6</ele>
        <time>2025-01-04T12:45:53Z</time>
      </trkpt>
      <trkpt lat="50.1822" lon="4.17163">
        <ele>215.7</ele>
        <time>2025-01-04T12:46:08Z</time>
      </trkpt>
      <trkpt lat="50.18219" lon="4.17162">
        <ele>215.7</ele>
        <time>2025-01-04T12:46:09Z</time>
      </trkpt>
      <trkpt lat="50.18213" lon="4.17152">
        <ele>216.2</ele>
        <time>2025-01-04T12:46:22Z</time>
      </trkpt>
      <trkpt lat="50.18206" lon="4.17142">
        <ele>216.6</ele>
        <time>2025-01-04T12:46:37Z</time>
      </trkpt>
      <trkpt lat="50.182" lon="4.17137">
        <ele>216.9</ele>
        <time>2025-01-04T12:46:49Z</time>
      </trkpt>
      <trkpt lat="50.18199" lon="4.17136">
        <ele>217</ele>
        <time>2025-01-04T12:46:50Z</time>
      </trkpt>
      <trkpt lat="50.18198" lon="4.17136">
        <ele>217</ele>
        <time>2025-01-04T12:46:51Z</time>
      </trkpt>
      <trkpt lat="50.18198" lon="4.17135">
        <ele>217</ele>
        <time>2025-01-04T12:46:52Z</time>
      </trkpt>
      <trkpt lat="50.18197" lon="4.17135">
        <ele>217.1</ele>
        <time>2025-01-04T12:46:53Z</time>
      </trkpt>
      <trkpt lat="50.18189" lon="4.17128">
        <ele>217.5</ele>
        <time>2025-01-04T12:47:04Z</time>
      </trkpt>
      <trkpt lat="50.18182" lon="4.17122">
        <ele>217.9</ele>
        <time>2025-01-04T12:47:16Z</time>
      </trkpt>
      <trkpt lat="50.18182" lon="4.17122">
        <ele>217.9</ele>
        <time>2025-01-04T12:47:17Z</time>
      </trkpt>
      <trkpt lat="50.18182" lon="4.17122">
        <ele>217.9</ele>
        <time>2025-01-04T12:47:18Z</time>
      </trkpt>
      <trkpt lat="50.18182" lon="4.17122">
        <ele>217.9</ele>
        <time>2025-01-04T12:47:28Z</time>
      </trkpt>
      <trkpt lat="50.18182" lon="4.17122">
        <ele>217.9</ele>
        <time>2025-01-04T12:47:29Z</time>
      </trkpt>
      <trkpt lat="50.18182" lon="4.17122">
        <ele>217.9</ele>
        <time>2025-01-04T12:47:30Z</time>
      </trkpt>
      <trkpt lat="50.18182" lon="4.17122">
        <ele>217.9</ele>
        <time>2025-01-04T12:47:31Z</time>
      </trkpt>
      <trkpt lat="50.18182" lon="4.17122">
        <ele>217.9</ele>
        <time>2025-01-04T12:47:32Z</time>
      </trkpt>
      <trkpt lat="50.18182" lon="4.17122">
        <ele>217.9</ele>
        <time>2025-01-04T12:47:35Z</time>
      </trkpt>
      <trkpt lat="50.18181" lon="4.17122">
        <ele>217.9</ele>
        <time>2025-01-04T12:47:36Z</time>
      </trkpt>
      <trkpt lat="50.1818" lon="4.17122">
        <ele>218</ele>
        <time>2025-01-04T12:47:37Z</time>
      </trkpt>
      <trkpt lat="50.18172" lon="4.17116">
        <ele>218.4</ele>
        <time>2025-01-04T12:47:53Z</time>
      </trkpt>
      <trkpt lat="50.18162" lon="4.17112">
        <ele>218.8</ele>
        <time>2025-01-04T12:48:04Z</time>
      </trkpt>
      <trkpt lat="50.18154" lon="4.17109">
        <ele>219.2</ele>
        <time>2025-01-04T12:48:16Z</time>
      </trkpt>
      <trkpt lat="50.18147" lon="4.17106">
        <ele>219.5</ele>
        <time>2025-01-04T12:48:31Z</time>
      </trkpt>
      <trkpt lat="50.18147" lon="4.17106">
        <ele>219.5</ele>
        <time>2025-01-04T12:48:32Z</time>
      </trkpt>
      <trkpt lat="50.18147" lon="4.17106">
        <ele>219.5</ele>
        <time>2025-01-04T12:48:33Z</time>
      </trkpt>
      <trkpt lat="50.18146" lon="4.17106">
        <ele>219.6</ele>
        <time>2025-01-04T12:48:38Z</time>
      </trkpt>
      <trkpt lat="50.18145" lon="4.17105">
        <ele>219.6</ele>
        <time>2025-01-04T12:48:39Z</time>
      </trkpt>
      <trkpt lat="50.18136" lon="4.17101">
        <ele>219.9</ele>
        <time>2025-01-04T12:48:48Z</time>
      </trkpt>
      <trkpt lat="50.18134" lon="4.171">
        <ele>220</ele>
        <time>2025-01-04T12:48:56Z</time>
      </trkpt>
      <trkpt lat="50.18134" lon="4.171">
        <ele>220</ele>
        <time>2025-01-04T12:48:57Z</time>
      </trkpt>
      <trkpt lat="50.18134" lon="4.171">
        <ele>220</ele>
        <time>2025-01-04T12:48:58Z</time>
      </trkpt>
      <trkpt lat="50.18131" lon="4.17101">
        <ele>220.1</ele>
        <time>2025-01-04T12:49:13Z</time>
      </trkpt>
      <trkpt lat="50.18131" lon="4.17101">
        <ele>220.1</ele>
        <time>2025-01-04T12:49:14Z</time>
      </trkpt>
      <trkpt lat="50.1813" lon="4.17101">
        <ele>220.1</ele>
        <time>2025-01-04T12:49:15Z</time>
      </trkpt>
      <trkpt lat="50.18122" lon="4.17097">
        <ele>220.3</ele>
        <time>2025-01-04T12:49:36Z</time>
      </trkpt>
      <trkpt lat="50.18122" lon="4.17097">
        <ele>220.3</ele>
        <time>2025-01-04T12:49:37Z</time>
      </trkpt>
      <trkpt lat="50.18122" lon="4.17097">
        <ele>220.3</ele>
        <time>2025-01-04T12:49:38Z</time>
      </trkpt>
      <trkpt lat="50.18122" lon="4.17095">
        <ele>220.3</ele>
        <time>2025-01-04T12:49:49Z</time>
      </trkpt>
      <trkpt lat="50.18121" lon="4.17095">
        <ele>220.3</ele>
        <time>2025-01-04T12:49:50Z</time>
      </trkpt>
      <trkpt lat="50.18112" lon="4.1709">
        <ele>220.5</ele>
        <time>2025-01-04T12:50:12Z</time>
      </trkpt>
      <trkpt lat="50.18106" lon="4.17088">
        <ele>220.7</ele>
        <time>2025-01-04T12:50:21Z</time>
      </trkpt>
      <trkpt lat="50.18106" lon="4.17088">
        <ele>220.7</ele>
        <time>2025-01-04T12:50:22Z</time>
      </trkpt>
      <trkpt lat="50.18106" lon="4.17088">
        <ele>220.7</ele>
        <time>2025-01-04T12:50:23Z</time>
      </trkpt>
      <trkpt lat="50.18104" lon="4.17087">
        <ele>220.7</ele>
        <time>2025-01-04T12:50:26Z</time>
      </trkpt>
      <trkpt lat="50.18103" lon="4.17086">
        <ele>220.7</ele>
        <time>2025-01-04T12:50:27Z</time>
      </trkpt>
      <trkpt lat="50.18103" lon="4.17085">
        <ele>220.8</ele>
        <time>2025-01-04T12:50:28Z</time>
      </trkpt>
      <trkpt lat="50.18094" lon="4.17079">
        <ele>221</ele>
        <time>2025-01-04T12:50:37Z</time>
      </trkpt>
      <trkpt lat="50.18091" lon="4.17077">
        <ele>221.1</ele>
        <time>2025-01-04T12:50:46Z</time>
      </trkpt>
      <trkpt lat="50.18091" lon="4.17077">
        <ele>221.1</ele>
        <time>2025-01-04T12:50:47Z</time>
      </trkpt>
      <trkpt lat="50.18091" lon="4.17077">
        <ele>221.1</ele>
        <time>2025-01-04T12:50:48Z</time>
      </trkpt>
      <trkpt lat="50.18091" lon="4.17077">
        <ele>221.2</ele>
        <time>2025-01-04T12:50:56Z</time>
      </trkpt>
      <trkpt lat="50.18091" lon="4.17077">
        <ele>221.2</ele>
        <time>2025-01-04T12:50:57Z</time>
      </trkpt>
      <trkpt lat="50.18091" lon="4.17077">
        <ele>221.2</ele>
        <time>2025-01-04T12:50:58Z</time>
      </trkpt>
      <trkpt lat="50.18091" lon="4.17077">
        <ele>221.2</ele>
        <time>2025-01-04T12:50:59Z</time>
      </trkpt>
      <trkpt lat="50.18091" lon="4.17077">
        <ele>221.2</ele>
        <time>2025-01-04T12:51:00Z</time>
      </trkpt>
      <trkpt lat="50.1809" lon="4.17075">
        <ele>221.2</ele>
        <time>2025-01-04T12:51:03Z</time>
      </trkpt>
      <trkpt lat="50.18089" lon="4.17075">
        <ele>221.2</ele>
        <time>2025-01-04T12:51:04Z</time>
      </trkpt>
      <trkpt lat="50.18087" lon="4.17073">
        <ele>221.3</ele>
        <time>2025-01-04T12:51:11Z</time>
      </trkpt>
      <trkpt lat="50.18087" lon="4.17073">
        <ele>221.3</ele>
        <time>2025-01-04T12:51:12Z</time>
      </trkpt>
      <trkpt lat="50.18087" lon="4.17073">
        <ele>221.3</ele>
        <time>2025-01-04T12:51:13Z</time>
      </trkpt>
      <trkpt lat="50.18087" lon="4.17073">
        <ele>221.3</ele>
        <time>2025-01-04T12:51:16Z</time>
      </trkpt>
      <trkpt lat="50.18087" lon="4.17074">
        <ele>221.3</ele>
        <time>2025-01-04T12:51:17Z</time>
      </trkpt>
      <trkpt lat="50.18088" lon="4.17074">
        <ele>221.2</ele>
        <time>2025-01-04T12:51:18Z</time>
      </trkpt>
      <trkpt lat="50.18086" lon="4.17075">
        <ele>221.2</ele>
        <time>2025-01-04T12:51:26Z</time>
      </trkpt>
      <trkpt lat="50.18086" lon="4.17075">
        <ele>221.2</ele>
        <time>2025-01-04T12:51:27Z</time>
      </trkpt>
      <trkpt lat="50.18086" lon="4.17075">
        <ele>221.2</ele>
        <time>2025-01-04T12:51:28Z</time>
      </trkpt>
      <trkpt lat="50.18087" lon="4.17075">
        <ele>221.1</ele>
        <time>2025-01-04T12:51:51Z</time>
      </trkpt>
      <trkpt lat="50.18087" lon="4.17076">
        <ele>221.1</ele>
        <time>2025-01-04T12:51:52Z</time>
      </trkpt>
      <trkpt lat="50.18088" lon="4.17076">
        <ele>221.1</ele>
        <time>2025-01-04T12:51:53Z</time>
      </trkpt>
      <trkpt lat="50.18097" lon="4.17081">
        <ele>220.7</ele>
        <time>2025-01-04T12:52:19Z</time>
      </trkpt>
      <trkpt lat="50.18098" lon="4.17082">
        <ele>220.7</ele>
        <time>2025-01-04T12:52:24Z</time>
      </trkpt>
      <trkpt lat="50.18098" lon="4.17082">
        <ele>220.7</ele>
        <time>2025-01-04T12:52:25Z</time>
      </trkpt>
      <trkpt lat="50.18098" lon="4.17082">
        <ele>220.7</ele>
        <time>2025-01-04T12:52:26Z</time>
      </trkpt>
      <trkpt lat="50.18098" lon="4.17082">
        <ele>220.7</ele>
        <time>2025-01-04T12:52:27Z</time>
      </trkpt>
      <trkpt lat="50.18098" lon="4.17082">
        <ele>220.7</ele>
        <time>2025-01-04T12:52:28Z</time>
      </trkpt>
      <trkpt lat="50.18107" lon="4.17089">
        <ele>220.5</ele>
        <time>2025-01-04T12:52:41Z</time>
      </trkpt>
      <trkpt lat="50.18112" lon="4.17092">
        <ele>220.4</ele>
        <time>2025-01-04T12:52:51Z</time>
      </trkpt>
      <trkpt lat="50.18112" lon="4.17092">
        <ele>220.4</ele>
        <time>2025-01-04T12:52:52Z</time>
      </trkpt>
      <trkpt lat="50.18113" lon="4.17092">
        <ele>220.4</ele>
        <time>2025-01-04T12:52:53Z</time>
      </trkpt>
      <trkpt lat="50.18113" lon="4.17092">
        <ele>220.4</ele>
        <time>2025-01-04T12:52:54Z</time>
      </trkpt>
      <trkpt lat="50.18114" lon="4.17092">
        <ele>220.4</ele>
        <time>2025-01-04T12:52:55Z</time>
      </trkpt>
      <trkpt lat="50.18123" lon="4.17097">
        <ele>220.2</ele>
        <time>2025-01-04T12:53:05Z</time>
      </trkpt>
      <trkpt lat="50.18123" lon="4.17096">
        <ele>220.2</ele>
        <time>2025-01-04T12:53:14Z</time>
      </trkpt>
      <trkpt lat="50.18123" lon="4.17096">
        <ele>220.2</ele>
        <time>2025-01-04T12:53:15Z</time>
      </trkpt>
      <trkpt lat="50.18125" lon="4.17097">
        <ele>220.2</ele>
        <time>2025-01-04T12:53:19Z</time>
      </trkpt>
      <trkpt lat="50.18125" lon="4.17097">
        <ele>220.2</ele>
        <time>2025-01-04T12:53:20Z</time>
      </trkpt>
      <trkpt lat="50.18127" lon="4.17097">
        <ele>220.1</ele>
        <time>2025-01-04T12:53:26Z</time>
      </trkpt>
      <trkpt lat="50.18127" lon="4.17098">
        <ele>220.1</ele>
        <time>2025-01-04T12:53:27Z</time>
      </trkpt>
      <trkpt lat="50.18127" lon="4.17098">
        <ele>220.1</ele>
        <time>2025-01-04T12:53:28Z</time>
      </trkpt>
      <trkpt lat="50.18128" lon="4.17098">
        <ele>220.1</ele>
        <time>2025-01-04T12:53:29Z</time>
      </trkpt>
      <trkpt lat="50.18128" lon="4.17099">
        <ele>220.1</ele>
        <time>2025-01-04T12:53:30Z</time>
      </trkpt>
      <trkpt lat="50.18137" lon="4.17104">
        <ele>219.9</ele>
        <time>2025-01-04T12:53:46Z</time>
      </trkpt>
      <trkpt lat="50.18141" lon="4.17106">
        <ele>219.7</ele>
        <time>2025-01-04T12:54:04Z</time>
      </trkpt>
      <trkpt lat="50.18141" lon="4.17106">
        <ele>219.7</ele>
        <time>2025-01-04T12:54:05Z</time>
      </trkpt>
      <trkpt lat="50.18142" lon="4.17106">
        <ele>219.7</ele>
        <time>2025-01-04T12:54:06Z</time>
      </trkpt>
      <trkpt lat="50.18142" lon="4.17106">
        <ele>219.7</ele>
        <time>2025-01-04T12:54:07Z</time>
      </trkpt>
      <trkpt lat="50.18142" lon="4.17107">
        <ele>219.7</ele>
        <time>2025-01-04T12:54:08Z</time>
      </trkpt>
      <trkpt lat="50.18143" lon="4.17108">
        <ele>219.7</ele>
        <time>2025-01-04T12:54:11Z</time>
      </trkpt>
      <trkpt lat="50.18144" lon="4.17108">
        <ele>219.6</ele>
        <time>2025-01-04T12:54:12Z</time>
      </trkpt>
      <trkpt lat="50.18144" lon="4.17108">
        <ele>219.6</ele>
        <time>2025-01-04T12:54:13Z</time>
      </trkpt>
      <trkpt lat="50.18145" lon="4.17108">
        <ele>219.6</ele>
        <time>2025-01-04T12:54:14Z</time>
      </trkpt>
      <trkpt lat="50.18145" lon="4.17108">
        <ele>219.6</ele>
        <time>2025-01-04T12:54:15Z</time>
      </trkpt>
      <trkpt lat="50.18154" lon="4.17111">
        <ele>219.3</ele>
        <time>2025-01-04T12:54:29Z</time>
      </trkpt>
      <trkpt lat="50.18164" lon="4.17113">
        <ele>218.9</ele>
        <time>2025-01-04T12:54:35Z</time>
      </trkpt>
      <trkpt lat="50.18173" lon="4.17118">
        <ele>218.5</ele>
        <time>2025-01-04T12:54:40Z</time>
      </trkpt>
      <trkpt lat="50.18182" lon="4.17124">
        <ele>218.1</ele>
        <time>2025-01-04T12:54:47Z</time>
      </trkpt>
      <trkpt lat="50.18191" lon="4.1713">
        <ele>217.7</ele>
        <time>2025-01-04T12:54:53Z</time>
      </trkpt>
      <trkpt lat="50.18182" lon="4.17123">
        <ele>217.3</ele>
        <time>2025-01-04T12:55:03Z</time>
      </trkpt>
      <trkpt lat="50.18179" lon="4.1712">
        <ele>217.2</ele>
        <time>2025-01-04T12:55:10Z</time>
      </trkpt>
      <trkpt lat="50.18179" lon="4.17121">
        <ele>217.2</ele>
        <time>2025-01-04T12:55:11Z</time>
      </trkpt>
      <trkpt lat="50.1818" lon="4.17122">
        <ele>217.2</ele>
        <time>2025-01-04T12:55:12Z</time>
      </trkpt>
      <trkpt lat="50.1818" lon="4.17123">
        <ele>217.1</ele>
        <time>2025-01-04T12:55:13Z</time>
      </trkpt>
      <trkpt lat="50.18181" lon="4.17123">
        <ele>217.1</ele>
        <time>2025-01-04T12:55:14Z</time>
      </trkpt>
      <trkpt lat="50.18181" lon="4.17124">
        <ele>217.1</ele>
        <time>2025-01-04T12:55:15Z</time>
      </trkpt>
      <trkpt lat="50.1819" lon="4.1713">
        <ele>216.7</ele>
        <time>2025-01-04T12:55:38Z</time>
      </trkpt>
      <trkpt lat="50.18198" lon="4.17137">
        <ele>216.3</ele>
        <time>2025-01-04T12:55:53Z</time>
      </trkpt>
      <trkpt lat="50.18206" lon="4.17144">
        <ele>216</ele>
        <time>2025-01-04T12:56:06Z</time>
      </trkpt>
      <trkpt lat="50.18214" lon="4.17153">
        <ele>215.5</ele>
        <time>2025-01-04T12:56:20Z</time>
      </trkpt>
      <trkpt lat="50.1822" lon="4.17165">
        <ele>215.1</ele>
        <time>2025-01-04T12:56:36Z</time>
      </trkpt>
      <trkpt lat="50.18226" lon="4.17176">
        <ele>214.5</ele>
        <time>2025-01-04T12:56:50Z</time>
      </trkpt>
      <trkpt lat="50.18227" lon="4.17178">
        <ele>214.4</ele>
        <time>2025-01-04T12:56:55Z</time>
      </trkpt>
      <trkpt lat="50.18227" lon="4.17178">
        <ele>214.4</ele>
        <time>2025-01-04T12:56:56Z</time>
      </trkpt>
      <trkpt lat="50.18227" lon="4.17179">
        <ele>214.3</ele>
        <time>2025-01-04T12:56:57Z</time>
      </trkpt>
      <trkpt lat="50.18228" lon="4.17181">
        <ele>214.2</ele>
        <time>2025-01-04T12:57:00Z</time>
      </trkpt>
      <trkpt lat="50.18228" lon="4.17182">
        <ele>214.2</ele>
        <time>2025-01-04T12:57:01Z</time>
      </trkpt>
      <trkpt lat="50.18229" lon="4.17183">
        <ele>214.1</ele>
        <time>2025-01-04T12:57:02Z</time>
      </trkpt>
      <trkpt lat="50.18233" lon="4.17196">
        <ele>213.3</ele>
        <time>2025-01-04T12:57:16Z</time>
      </trkpt>
      <trkpt lat="50.18237" lon="4.1721">
        <ele>212.4</ele>
        <time>2025-01-04T12:57:36Z</time>
      </trkpt>
      <trkpt lat="50.18239" lon="4.17223">
        <ele>211.4</ele>
        <time>2025-01-04T12:57:53Z</time>
      </trkpt>
      <trkpt lat="50.18244" lon="4.17236">
        <ele>210.4</ele>
        <time>2025-01-04T12:58:08Z</time>
      </trkpt>
      <trkpt lat="50.18248" lon="4.17249">
        <ele>209.5</ele>
        <time>2025-01-04T12:58:22Z</time>
      </trkpt>
      <trkpt lat="50.18251" lon="4.17262">
        <ele>208.5</ele>
        <time>2025-01-04T12:58:37Z</time>
      </trkpt>
      <trkpt lat="50.18254" lon="4.17276">
        <ele>207.6</ele>
        <time>2025-01-04T12:58:51Z</time>
      </trkpt>
      <trkpt lat="50.18257" lon="4.1729">
        <ele>206.7</ele>
        <time>2025-01-04T12:59:05Z</time>
      </trkpt>
      <trkpt lat="50.18261" lon="4.17303">
        <ele>205.7</ele>
        <time>2025-01-04T12:59:23Z</time>
      </trkpt>
      <trkpt lat="50.18265" lon="4.17316">
        <ele>204.6</ele>
        <time>2025-01-04T12:59:39Z</time>
      </trkpt>
      <trkpt lat="50.18267" lon="4.1733">
        <ele>203.7</ele>
        <time>2025-01-04T13:00:01Z</time>
      </trkpt>
      <trkpt lat="50.18271" lon="4.17342">
        <ele>202.9</ele>
        <time>2025-01-04T13:00:16Z</time>
      </trkpt>
      <trkpt lat="50.18273" lon="4.17356">
        <ele>202.1</ele>
        <time>2025-01-04T13:00:30Z</time>
      </trkpt>
      <trkpt lat="50.18275" lon="4.17371">
        <ele>201.3</ele>
        <time>2025-01-04T13:00:43Z</time>
      </trkpt>
      <trkpt lat="50.18276" lon="4.17384">
        <ele>200.7</ele>
        <time>2025-01-04T13:00:58Z</time>
      </trkpt>
      <trkpt lat="50.18276" lon="4.17385">
        <ele>200.7</ele>
        <time>2025-01-04T13:00:59Z</time>
      </trkpt>
      <trkpt lat="50.18276" lon="4.17386">
        <ele>200.7</ele>
        <time>2025-01-04T13:01:00Z</time>
      </trkpt>
      <trkpt lat="50.18276" lon="4.17387">
        <ele>200.6</ele>
        <time>2025-01-04T13:01:01Z</time>
      </trkpt>
      <trkpt lat="50.18276" lon="4.17388">
        <ele>200.6</ele>
        <time>2025-01-04T13:01:02Z</time>
      </trkpt>
      <trkpt lat="50.18276" lon="4.17402">
        <ele>200.2</ele>
        <time>2025-01-04T13:01:15Z</time>
      </trkpt>
      <trkpt lat="50.18279" lon="4.17416">
        <ele>199.9</ele>
        <time>2025-01-04T13:01:28Z</time>
      </trkpt>
      <trkpt lat="50.18284" lon="4.17428">
        <ele>199.4</ele>
        <time>2025-01-04T13:01:39Z</time>
      </trkpt>
      <trkpt lat="50.18291" lon="4.17437">
        <ele>198.9</ele>
        <time>2025-01-04T13:01:49Z</time>
      </trkpt>
      <trkpt lat="50.183" lon="4.17445">
        <ele>198.5</ele>
        <time>2025-01-04T13:02:02Z</time>
      </trkpt>
      <trkpt lat="50.18309" lon="4.17447">
        <ele>198.2</ele>
        <time>2025-01-04T13:02:14Z</time>
      </trkpt>
      <trkpt lat="50.18318" lon="4.17449">
        <ele>197.8</ele>
        <time>2025-01-04T13:02:26Z</time>
      </trkpt>
      <trkpt lat="50.18328" lon="4.17449">
        <ele>197.6</ele>
        <time>2025-01-04T13:02:38Z</time>
      </trkpt>
      <trkpt lat="50.18337" lon="4.17449">
        <ele>197.4</ele>
        <time>2025-01-04T13:02:48Z</time>
      </trkpt>
      <trkpt lat="50.18346" lon="4.1745">
        <ele>197.3</ele>
        <time>2025-01-04T13:02:58Z</time>
      </trkpt>
      <trkpt lat="50.18347" lon="4.1745">
        <ele>197.2</ele>
        <time>2025-01-04T13:03:03Z</time>
      </trkpt>
      <trkpt lat="50.18347" lon="4.1745">
        <ele>197.2</ele>
        <time>2025-01-04T13:03:04Z</time>
      </trkpt>
      <trkpt lat="50.18348" lon="4.1745">
        <ele>197.2</ele>
        <time>2025-01-04T13:03:05Z</time>
      </trkpt>
      <trkpt lat="50.18349" lon="4.1745">
        <ele>197.2</ele>
        <time>2025-01-04T13:03:06Z</time>
      </trkpt>
      <trkpt lat="50.1835" lon="4.1745">
        <ele>197.2</ele>
        <time>2025-01-04T13:03:07Z</time>
      </trkpt>
      <trkpt lat="50.1836" lon="4.1745">
        <ele>196.9</ele>
        <time>2025-01-04T13:03:16Z</time>
      </trkpt>
      <trkpt lat="50.18369" lon="4.17452">
        <ele>196.5</ele>
        <time>2025-01-04T13:03:26Z</time>
      </trkpt>
      <trkpt lat="50.18378" lon="4.17457">
        <ele>196</ele>
        <time>2025-01-04T13:03:37Z</time>
      </trkpt>
      <trkpt lat="50.18381" lon="4.17471">
        <ele>195.5</ele>
        <time>2025-01-04T13:03:48Z</time>
      </trkpt>
      <trkpt lat="50.1838" lon="4.17486">
        <ele>194.9</ele>
        <time>2025-01-04T13:03:58Z</time>
      </trkpt>
      <trkpt lat="50.18379" lon="4.17501">
        <ele>194.3</ele>
        <time>2025-01-04T13:04:09Z</time>
      </trkpt>
      <trkpt lat="50.18378" lon="4.17513">
        <ele>193.7</ele>
        <time>2025-01-04T13:04:22Z</time>
      </trkpt>
      <trkpt lat="50.18378" lon="4.17513">
        <ele>193.7</ele>
        <time>2025-01-04T13:04:23Z</time>
      </trkpt>
      <trkpt lat="50.18378" lon="4.17515">
        <ele>193.6</ele>
        <time>2025-01-04T13:04:26Z</time>
      </trkpt>
      <trkpt lat="50.18378" lon="4.17517">
        <ele>193.6</ele>
        <time>2025-01-04T13:04:27Z</time>
      </trkpt>
      <trkpt lat="50.18378" lon="4.17518">
        <ele>193.5</ele>
        <time>2025-01-04T13:04:28Z</time>
      </trkpt>
      <trkpt lat="50.18379" lon="4.17532">
        <ele>192.9</ele>
        <time>2025-01-04T13:04:38Z</time>
      </trkpt>
      <trkpt lat="50.1838" lon="4.17546">
        <ele>192.4</ele>
        <time>2025-01-04T13:04:49Z</time>
      </trkpt>
      <trkpt lat="50.18384" lon="4.17559">
        <ele>191.8</ele>
        <time>2025-01-04T13:05:00Z</time>
      </trkpt>
      <trkpt lat="50.1839" lon="4.1757">
        <ele>191.3</ele>
        <time>2025-01-04T13:05:11Z</time>
      </trkpt>
      <trkpt lat="50.18397" lon="4.17581">
        <ele>190.8</ele>
        <time>2025-01-04T13:05:22Z</time>
      </trkpt>
      <trkpt lat="50.18404" lon="4.17591">
        <ele>190.4</ele>
        <time>2025-01-04T13:05:33Z</time>
      </trkpt>
      <trkpt lat="50.18413" lon="4.17599">
        <ele>190</ele>
        <time>2025-01-04T13:05:44Z</time>
      </trkpt>
      <trkpt lat="50.1842" lon="4.17608">
        <ele>189.9</ele>
        <time>2025-01-04T13:05:55Z</time>
      </trkpt>
      <trkpt lat="50.18427" lon="4.17617">
        <ele>189.7</ele>
        <time>2025-01-04T13:06:06Z</time>
      </trkpt>
      <trkpt lat="50.18435" lon="4.17626">
        <ele>189.6</ele>
        <time>2025-01-04T13:06:17Z</time>
      </trkpt>
      <trkpt lat="50.18442" lon="4.17635">
        <ele>189.5</ele>
        <time>2025-01-04T13:06:28Z</time>
      </trkpt>
      <trkpt lat="50.18449" lon="4.17645">
        <ele>189.5</ele>
        <time>2025-01-04T13:06:39Z</time>
      </trkpt>
      <trkpt lat="50.18457" lon="4.17653">
        <ele>189.5</ele>
        <time>2025-01-04T13:06:51Z</time>
      </trkpt>
      <trkpt lat="50.18465" lon="4.17662">
        <ele>189.6</ele>
        <time>2025-01-04T13:07:01Z</time>
      </trkpt>
      <trkpt lat="50.18472" lon="4.1767">
        <ele>189.7</ele>
        <time>2025-01-04T13:07:12Z</time>
      </trkpt>
      <trkpt lat="50.18478" lon="4.17681">
        <ele>189.9</ele>
        <time>2025-01-04T13:07:25Z</time>
      </trkpt>
      <trkpt lat="50.1848" lon="4.17687">
        <ele>190</ele>
        <time>2025-01-04T13:07:36Z</time>
      </trkpt>
      <trkpt lat="50.1848" lon="4.17687">
        <ele>190</ele>
        <time>2025-01-04T13:07:37Z</time>
      </trkpt>
      <trkpt lat="50.1848" lon="4.17687">
        <ele>190</ele>
        <time>2025-01-04T13:07:38Z</time>
      </trkpt>
      <trkpt lat="50.1848" lon="4.17685">
        <ele>190</ele>
        <time>2025-01-04T13:08:04Z</time>
      </trkpt>
      <trkpt lat="50.1848" lon="4.17684">
        <ele>190</ele>
        <time>2025-01-04T13:08:05Z</time>
      </trkpt>
      <trkpt lat="50.18476" lon="4.17671">
        <ele>189.8</ele>
        <time>2025-01-04T13:08:17Z</time>
      </trkpt>
      <trkpt lat="50.18469" lon="4.17662">
        <ele>189.6</ele>
        <time>2025-01-04T13:08:28Z</time>
      </trkpt>
      <trkpt lat="50.18461" lon="4.17653">
        <ele>189.6</ele>
        <time>2025-01-04T13:08:39Z</time>
      </trkpt>
      <trkpt lat="50.18453" lon="4.17643">
        <ele>189.5</ele>
        <time>2025-01-04T13:08:49Z</time>
      </trkpt>
      <trkpt lat="50.18446" lon="4.17636">
        <ele>189.5</ele>
        <time>2025-01-04T13:08:59Z</time>
      </trkpt>
      <trkpt lat="50.18439" lon="4.17627">
        <ele>189.6</ele>
        <time>2025-01-04T13:09:08Z</time>
      </trkpt>
      <trkpt lat="50.18431" lon="4.17619">
        <ele>189.7</ele>
        <time>2025-01-04T13:09:17Z</time>
      </trkpt>
      <trkpt lat="50.18424" lon="4.17611">
        <ele>189.8</ele>
        <time>2025-01-04T13:09:27Z</time>
      </trkpt>
      <trkpt lat="50.18416" lon="4.17601">
        <ele>190</ele>
        <time>2025-01-04T13:09:38Z</time>
      </trkpt>
      <trkpt lat="50.18408" lon="4.17593">
        <ele>190.2</ele>
        <time>2025-01-04T13:09:48Z</time>
      </trkpt>
      <trkpt lat="50.184" lon="4.17584">
        <ele>190.6</ele>
        <time>2025-01-04T13:09:58Z</time>
      </trkpt>
      <trkpt lat="50.18393" lon="4.17575">
        <ele>191.1</ele>
        <time>2025-01-04T13:10:08Z</time>
      </trkpt>
      <trkpt lat="50.18387" lon="4.17564">
        <ele>191.6</ele>
        <time>2025-01-04T13:10:18Z</time>
      </trkpt>
      <trkpt lat="50.18382" lon="4.1755">
        <ele>192.2</ele>
        <time>2025-01-04T13:10:28Z</time>
      </trkpt>
      <trkpt lat="50.18379" lon="4.17535">
        <ele>192.8</ele>
        <time>2025-01-04T13:10:38Z</time>
      </trkpt>
      <trkpt lat="50.18379" lon="4.1752">
        <ele>193.4</ele>
        <time>2025-01-04T13:10:47Z</time>
      </trkpt>
      <trkpt lat="50.18379" lon="4.17513">
        <ele>193.7</ele>
        <time>2025-01-04T13:10:56Z</time>
      </trkpt>
      <trkpt lat="50.18379" lon="4.17513">
        <ele>193.7</ele>
        <time>2025-01-04T13:10:57Z</time>
      </trkpt>
      <trkpt lat="50.18379" lon="4.17512">
        <ele>193.7</ele>
        <time>2025-01-04T13:10:58Z</time>
      </trkpt>
      <trkpt lat="50.1838" lon="4.17511">
        <ele>193.8</ele>
        <time>2025-01-04T13:10:59Z</time>
      </trkpt>
      <trkpt lat="50.1838" lon="4.17509">
        <ele>193.9</ele>
        <time>2025-01-04T13:11:00Z</time>
      </trkpt>
      <trkpt lat="50.18381" lon="4.17502">
        <ele>194.2</ele>
        <time>2025-01-04T13:11:09Z</time>
      </trkpt>
      <trkpt lat="50.18381" lon="4.17501">
        <ele>194.2</ele>
        <time>2025-01-04T13:11:10Z</time>
      </trkpt>
      <trkpt lat="50.18381" lon="4.175">
        <ele>194.3</ele>
        <time>2025-01-04T13:11:12Z</time>
      </trkpt>
      <trkpt lat="50.18381" lon="4.17499">
        <ele>194.3</ele>
        <time>2025-01-04T13:11:13Z</time>
      </trkpt>
      <trkpt lat="50.18382" lon="4.17495">
        <ele>194.5</ele>
        <time>2025-01-04T13:11:19Z</time>
      </trkpt>
      <trkpt lat="50.18382" lon="4.17495">
        <ele>194.5</ele>
        <time>2025-01-04T13:11:20Z</time>
      </trkpt>
      <trkpt lat="50.18381" lon="4.17491">
        <ele>194.7</ele>
        <time>2025-01-04T13:11:26Z</time>
      </trkpt>
      <trkpt lat="50.18381" lon="4.1749">
        <ele>194.7</ele>
        <time>2025-01-04T13:11:27Z</time>
      </trkpt>
      <trkpt lat="50.18381" lon="4.17489">
        <ele>194.8</ele>
        <time>2025-01-04T13:11:28Z</time>
      </trkpt>
      <trkpt lat="50.1838" lon="4.17474">
        <ele>195.4</ele>
        <time>2025-01-04T13:11:39Z</time>
      </trkpt>
      <trkpt lat="50.18378" lon="4.17459">
        <ele>195.9</ele>
        <time>2025-01-04T13:11:49Z</time>
      </trkpt>
      <trkpt lat="50.1837" lon="4.1745">
        <ele>196.5</ele>
        <time>2025-01-04T13:12:00Z</time>
      </trkpt>
      <trkpt lat="50.18361" lon="4.1745">
        <ele>196.9</ele>
        <time>2025-01-04T13:12:13Z</time>
      </trkpt>
      <trkpt lat="50.18352" lon="4.1745">
        <ele>197.1</ele>
        <time>2025-01-04T13:12:24Z</time>
      </trkpt>
      <trkpt lat="50.18343" lon="4.17448">
        <ele>197.3</ele>
        <time>2025-01-04T13:12:35Z</time>
      </trkpt>
      <trkpt lat="50.1834" lon="4.17448">
        <ele>197.3</ele>
        <time>2025-01-04T13:12:44Z</time>
      </trkpt>
      <trkpt lat="50.18339" lon="4.17448">
        <ele>197.4</ele>
        <time>2025-01-04T13:12:45Z</time>
      </trkpt>
      <trkpt lat="50.18338" lon="4.17448">
        <ele>197.4</ele>
        <time>2025-01-04T13:12:46Z</time>
      </trkpt>
      <trkpt lat="50.18337" lon="4.17448">
        <ele>197.4</ele>
        <time>2025-01-04T13:12:47Z</time>
      </trkpt>
      <trkpt lat="50.18336" lon="4.17448">
        <ele>197.4</ele>
        <time>2025-01-04T13:12:48Z</time>
      </trkpt>
      <trkpt lat="50.18327" lon="4.17448">
        <ele>197.6</ele>
        <time>2025-01-04T13:12:58Z</time>
      </trkpt>
      <trkpt lat="50.18318" lon="4.17446">
        <ele>197.8</ele>
        <time>2025-01-04T13:13:08Z</time>
      </trkpt>
      <trkpt lat="50.18308" lon="4.17444">
        <ele>198.2</ele>
        <time>2025-01-04T13:13:19Z</time>
      </trkpt>
      <trkpt lat="50.18303" lon="4.17441">
        <ele>198.4</ele>
        <time>2025-01-04T13:13:29Z</time>
      </trkpt>
      <trkpt lat="50.18303" lon="4.17441">
        <ele>198.4</ele>
        <time>2025-01-04T13:13:30Z</time>
      </trkpt>
      <trkpt lat="50.183" lon="4.17439">
        <ele>198.5</ele>
        <time>2025-01-04T13:13:41Z</time>
      </trkpt>
      <trkpt lat="50.18299" lon="4.17439">
        <ele>198.6</ele>
        <time>2025-01-04T13:13:42Z</time>
      </trkpt>
      <trkpt lat="50.18299" lon="4.17438">
        <ele>198.6</ele>
        <time>2025-01-04T13:13:43Z</time>
      </trkpt>
      <trkpt lat="50.1829" lon="4.17431">
        <ele>199</ele>
        <time>2025-01-04T13:13:54Z</time>
      </trkpt>
      <trkpt lat="50.18285" lon="4.17423">
        <ele>199.3</ele>
        <time>2025-01-04T13:14:06Z</time>
      </trkpt>
      <trkpt lat="50.18285" lon="4.17423">
        <ele>199.3</ele>
        <time>2025-01-04T13:14:07Z</time>
      </trkpt>
      <trkpt lat="50.18285" lon="4.17423">
        <ele>199.3</ele>
        <time>2025-01-04T13:14:08Z</time>
      </trkpt>
      <trkpt lat="50.18283" lon="4.17419">
        <ele>199.5</ele>
        <time>2025-01-04T13:14:14Z</time>
      </trkpt>
      <trkpt lat="50.18282" lon="4.17418">
        <ele>199.6</ele>
        <time>2025-01-04T13:14:15Z</time>
      </trkpt>
      <trkpt lat="50.18278" lon="4.17404">
        <ele>200</ele>
        <time>2025-01-04T13:14:25Z</time>
      </trkpt>
      <trkpt lat="50.18277" lon="4.17401">
        <ele>200.1</ele>
        <time>2025-01-04T13:14:31Z</time>
      </trkpt>
      <trkpt lat="50.18277" lon="4.17401">
        <ele>200.1</ele>
        <time>2025-01-04T13:14:32Z</time>
      </trkpt>
      <trkpt lat="50.18277" lon="4.17401">
        <ele>200.1</ele>
        <time>2025-01-04T13:14:33Z</time>
      </trkpt>
      <trkpt lat="50.18277" lon="4.17399">
        <ele>200.2</ele>
        <time>2025-01-04T13:14:39Z</time>
      </trkpt>
      <trkpt lat="50.18277" lon="4.17398">
        <ele>200.2</ele>
        <time>2025-01-04T13:14:40Z</time>
      </trkpt>
      <trkpt lat="50.18277" lon="4.17383">
        <ele>200.8</ele>
        <time>2025-01-04T13:14:55Z</time>
      </trkpt>
      <trkpt lat="50.18277" lon="4.17369">
        <ele>201.4</ele>
        <time>2025-01-04T13:15:18Z</time>
      </trkpt>
      <trkpt lat="50.18277" lon="4.17356">
        <ele>202.2</ele>
        <time>2025-01-04T13:15:35Z</time>
      </trkpt>
      <trkpt lat="50.18277" lon="4.17356">
        <ele>202.2</ele>
        <time>2025-01-04T13:15:36Z</time>
      </trkpt>
      <trkpt lat="50.18277" lon="4.17356">
        <ele>202.2</ele>
        <time>2025-01-04T13:15:37Z</time>
      </trkpt>
      <trkpt lat="50.18277" lon="4.17353">
        <ele>202.3</ele>
        <time>2025-01-04T13:15:41Z</time>
      </trkpt>
      <trkpt lat="50.18277" lon="4.17353">
        <ele>202.4</ele>
        <time>2025-01-04T13:15:42Z</time>
      </trkpt>
      <trkpt lat="50.18276" lon="4.17351">
        <ele>202.4</ele>
        <time>2025-01-04T13:15:43Z</time>
      </trkpt>
      <trkpt lat="50.18275" lon="4.17342">
        <ele>203</ele>
        <time>2025-01-04T13:15:54Z</time>
      </trkpt>
      <trkpt lat="50.18275" lon="4.17342">
        <ele>203</ele>
        <time>2025-01-04T13:15:55Z</time>
      </trkpt>
      <trkpt lat="50.18275" lon="4.17341">
        <ele>203.1</ele>
        <time>2025-01-04T13:15:56Z</time>
      </trkpt>
      <trkpt lat="50.18275" lon="4.1734">
        <ele>203.2</ele>
        <time>2025-01-04T13:15:57Z</time>
      </trkpt>
      <trkpt lat="50.18275" lon="4.17339">
        <ele>203.2</ele>
        <time>2025-01-04T13:15:58Z</time>
      </trkpt>
      <trkpt lat="50.18266" lon="4.17332">
        <ele>204.1</ele>
        <time>2025-01-04T13:16:20Z</time>
      </trkpt>
      <trkpt lat="50.18257" lon="4.17333">
        <ele>205</ele>
        <time>2025-01-04T13:16:32Z</time>
      </trkpt>
      <trkpt lat="50.18248" lon="4.17335">
        <ele>205.7</ele>
        <time>2025-01-04T13:16:41Z</time>
      </trkpt>
      <trkpt lat="50.18238" lon="4.17337">
        <ele>206.3</ele>
        <time>2025-01-04T13:16:51Z</time>
      </trkpt>
      <trkpt lat="50.18228" lon="4.1734">
        <ele>206.8</ele>
        <time>2025-01-04T13:17:02Z</time>
      </trkpt>
      <trkpt lat="50.18219" lon="4.17339">
        <ele>207</ele>
        <time>2025-01-04T13:17:12Z</time>
      </trkpt>
      <trkpt lat="50.18217" lon="4.1734">
        <ele>207.1</ele>
        <time>2025-01-04T13:17:16Z</time>
      </trkpt>
      <trkpt lat="50.18217" lon="4.1734">
        <ele>207.1</ele>
        <time>2025-01-04T13:17:17Z</time>
      </trkpt>
      <trkpt lat="50.18217" lon="4.1734">
        <ele>207.1</ele>
        <time>2025-01-04T13:17:18Z</time>
      </trkpt>
      <trkpt lat="50.18215" lon="4.17339">
        <ele>207.1</ele>
        <time>2025-01-04T13:17:48Z</time>
      </trkpt>
      <trkpt lat="50.18214" lon="4.17339">
        <ele>207.1</ele>
        <time>2025-01-04T13:17:49Z</time>
      </trkpt>
      <trkpt lat="50.18214" lon="4.17339">
        <ele>207.1</ele>
        <time>2025-01-04T13:17:50Z</time>
      </trkpt>
      <trkpt lat="50.18204" lon="4.17341">
        <ele>207.2</ele>
        <time>2025-01-04T13:18:02Z</time>
      </trkpt>
      <trkpt lat="50.18195" lon="4.1734">
        <ele>207.3</ele>
        <time>2025-01-04T13:18:14Z</time>
      </trkpt>
      <trkpt lat="50.1819" lon="4.1734">
        <ele>207.3</ele>
        <time>2025-01-04T13:18:24Z</time>
      </trkpt>
      <trkpt lat="50.1819" lon="4.1734">
        <ele>207.3</ele>
        <time>2025-01-04T13:18:25Z</time>
      </trkpt>
      <trkpt lat="50.1819" lon="4.1734">
        <ele>207.3</ele>
        <time>2025-01-04T13:18:26Z</time>
      </trkpt>
      <trkpt lat="50.18189" lon="4.17341">
        <ele>207.3</ele>
        <time>2025-01-04T13:18:27Z</time>
      </trkpt>
      <trkpt lat="50.18188" lon="4.17341">
        <ele>207.3</ele>
        <time>2025-01-04T13:18:28Z</time>
      </trkpt>
      <trkpt lat="50.18178" lon="4.17343">
        <ele>207.3</ele>
        <time>2025-01-04T13:18:40Z</time>
      </trkpt>
      <trkpt lat="50.18171" lon="4.17343">
        <ele>207.3</ele>
        <time>2025-01-04T13:18:56Z</time>
      </trkpt>
      <trkpt lat="50.18171" lon="4.17343">
        <ele>207.3</ele>
        <time>2025-01-04T13:18:57Z</time>
      </trkpt>
      <trkpt lat="50.18171" lon="4.17343">
        <ele>207.3</ele>
        <time>2025-01-04T13:18:58Z</time>
      </trkpt>
      <trkpt lat="50.18171" lon="4.17343">
        <ele>207.3</ele>
        <time>2025-01-04T13:18:59Z</time>
      </trkpt>
      <trkpt lat="50.18171" lon="4.17343">
        <ele>207.3</ele>
        <time>2025-01-04T13:19:00Z</time>
      </trkpt>
      <trkpt lat="50.1817" lon="4.17343">
        <ele>207.3</ele>
        <time>2025-01-04T13:19:01Z</time>
      </trkpt>
      <trkpt lat="50.18169" lon="4.17343">
        <ele>207.3</ele>
        <time>2025-01-04T13:19:02Z</time>
      </trkpt>
      <trkpt lat="50.18168" lon="4.17343">
        <ele>207.3</ele>
        <time>2025-01-04T13:19:03Z</time>
      </trkpt>
      <trkpt lat="50.18167" lon="4.17343">
        <ele>207.3</ele>
        <time>2025-01-04T13:19:04Z</time>
      </trkpt>
      <trkpt lat="50.18166" lon="4.17343">
        <ele>207.3</ele>
        <time>2025-01-04T13:19:05Z</time>
      </trkpt>
      <trkpt lat="50.18156" lon="4.17342">
        <ele>207.3</ele>
        <time>2025-01-04T13:19:18Z</time>
      </trkpt>
      <trkpt lat="50.18147" lon="4.1734">
        <ele>207.3</ele>
        <time>2025-01-04T13:19:27Z</time>
      </trkpt>
      <trkpt lat="50.18145" lon="4.1734">
        <ele>207.3</ele>
        <time>2025-01-04T13:19:33Z</time>
      </trkpt>
      <trkpt lat="50.18145" lon="4.1734">
        <ele>207.3</ele>
        <time>2025-01-04T13:19:34Z</time>
      </trkpt>
      <trkpt lat="50.18145" lon="4.1734">
        <ele>207.3</ele>
        <time>2025-01-04T13:19:35Z</time>
      </trkpt>
      <trkpt lat="50.18144" lon="4.17341">
        <ele>207.3</ele>
        <time>2025-01-04T13:19:46Z</time>
      </trkpt>
      <trkpt lat="50.18143" lon="4.17341">
        <ele>207.3</ele>
        <time>2025-01-04T13:19:47Z</time>
      </trkpt>
      <trkpt lat="50.18142" lon="4.17341">
        <ele>207.3</ele>
        <time>2025-01-04T13:19:48Z</time>
      </trkpt>
      <trkpt lat="50.18133" lon="4.17339">
        <ele>207.3</ele>
        <time>2025-01-04T13:19:57Z</time>
      </trkpt>
      <trkpt lat="50.18124" lon="4.17336">
        <ele>207.3</ele>
        <time>2025-01-04T13:20:07Z</time>
      </trkpt>
      <trkpt lat="50.18118" lon="4.17334">
        <ele>207.3</ele>
        <time>2025-01-04T13:20:19Z</time>
      </trkpt>
      <trkpt lat="50.18118" lon="4.17334">
        <ele>207.3</ele>
        <time>2025-01-04T13:20:20Z</time>
      </trkpt>
      <trkpt lat="50.18116" lon="4.17334">
        <ele>207.3</ele>
        <time>2025-01-04T13:20:24Z</time>
      </trkpt>
      <trkpt lat="50.18115" lon="4.17333">
        <ele>207.3</ele>
        <time>2025-01-04T13:20:25Z</time>
      </trkpt>
      <trkpt lat="50.18106" lon="4.1733">
        <ele>207.2</ele>
        <time>2025-01-04T13:20:37Z</time>
      </trkpt>
      <trkpt lat="50.18097" lon="4.17327">
        <ele>207.2</ele>
        <time>2025-01-04T13:20:47Z</time>
      </trkpt>
      <trkpt lat="50.18091" lon="4.17325">
        <ele>207.1</ele>
        <time>2025-01-04T13:20:59Z</time>
      </trkpt>
      <trkpt lat="50.18091" lon="4.17325">
        <ele>207.1</ele>
        <time>2025-01-04T13:21:00Z</time>
      </trkpt>
      <trkpt lat="50.1809" lon="4.17324">
        <ele>207.1</ele>
        <time>2025-01-04T13:21:04Z</time>
      </trkpt>
      <trkpt lat="50.18089" lon="4.17324">
        <ele>207</ele>
        <time>2025-01-04T13:21:05Z</time>
      </trkpt>
      <trkpt lat="50.1808" lon="4.17322">
        <ele>206.8</ele>
        <time>2025-01-04T13:21:15Z</time>
      </trkpt>
      <trkpt lat="50.18071" lon="4.1732">
        <ele>206.5</ele>
        <time>2025-01-04T13:21:31Z</time>
      </trkpt>
      <trkpt lat="50.18071" lon="4.1732">
        <ele>206.5</ele>
        <time>2025-01-04T13:21:32Z</time>
      </trkpt>
      <trkpt lat="50.18071" lon="4.1732">
        <ele>206.5</ele>
        <time>2025-01-04T13:21:33Z</time>
      </trkpt>
      <trkpt lat="50.1807" lon="4.1732">
        <ele>206.5</ele>
        <time>2025-01-04T13:21:34Z</time>
      </trkpt>
      <trkpt lat="50.1807" lon="4.1732">
        <ele>206.5</ele>
        <time>2025-01-04T13:21:35Z</time>
      </trkpt>
      <trkpt lat="50.18061" lon="4.17317">
        <ele>206.1</ele>
        <time>2025-01-04T13:21:47Z</time>
      </trkpt>
      <trkpt lat="50.18052" lon="4.17315">
        <ele>205.7</ele>
        <time>2025-01-04T13:21:59Z</time>
      </trkpt>
      <trkpt lat="50.18052" lon="4.17315">
        <ele>205.7</ele>
        <time>2025-01-04T13:22:00Z</time>
      </trkpt>
      <trkpt lat="50.18051" lon="4.17314">
        <ele>205.6</ele>
        <time>2025-01-04T13:22:04Z</time>
      </trkpt>
      <trkpt lat="50.1805" lon="4.17313">
        <ele>205.5</ele>
        <time>2025-01-04T13:22:05Z</time>
      </trkpt>
      <trkpt lat="50.18041" lon="4.17307">
        <ele>204.8</ele>
        <time>2025-01-04T13:22:16Z</time>
      </trkpt>
      <trkpt lat="50.18037" lon="4.17303">
        <ele>204.5</ele>
        <time>2025-01-04T13:22:24Z</time>
      </trkpt>
      <trkpt lat="50.18037" lon="4.17303">
        <ele>204.5</ele>
        <time>2025-01-04T13:22:25Z</time>
      </trkpt>
      <trkpt lat="50.18036" lon="4.17303">
        <ele>204.4</ele>
        <time>2025-01-04T13:22:31Z</time>
      </trkpt>
      <trkpt lat="50.18036" lon="4.17302">
        <ele>204.3</ele>
        <time>2025-01-04T13:22:32Z</time>
      </trkpt>
      <trkpt lat="50.18035" lon="4.17301">
        <ele>204.3</ele>
        <time>2025-01-04T13:22:33Z</time>
      </trkpt>
      <trkpt lat="50.18028" lon="4.17291">
        <ele>203.6</ele>
        <time>2025-01-04T13:22:46Z</time>
      </trkpt>
      <trkpt lat="50.18024" lon="4.17287">
        <ele>203.4</ele>
        <time>2025-01-04T13:23:04Z</time>
      </trkpt>
      <trkpt lat="50.18023" lon="4.17286">
        <ele>203.3</ele>
        <time>2025-01-04T13:23:05Z</time>
      </trkpt>
      <trkpt lat="50.18023" lon="4.17285">
        <ele>203.3</ele>
        <time>2025-01-04T13:23:06Z</time>
      </trkpt>
      <trkpt lat="50.18023" lon="4.17285">
        <ele>203.3</ele>
        <time>2025-01-04T13:23:07Z</time>
      </trkpt>
      <trkpt lat="50.18022" lon="4.17284">
        <ele>203.3</ele>
        <time>2025-01-04T13:23:08Z</time>
      </trkpt>
      <trkpt lat="50.18015" lon="4.17275">
        <ele>203</ele>
        <time>2025-01-04T13:23:26Z</time>
      </trkpt>
      <trkpt lat="50.18008" lon="4.17265">
        <ele>202.7</ele>
        <time>2025-01-04T13:23:36Z</time>
      </trkpt>
      <trkpt lat="50.18003" lon="4.17259">
        <ele>202.6</ele>
        <time>2025-01-04T13:23:46Z</time>
      </trkpt>
      <trkpt lat="50.18003" lon="4.17259">
        <ele>202.6</ele>
        <time>2025-01-04T13:23:47Z</time>
      </trkpt>
      <trkpt lat="50.18003" lon="4.17259">
        <ele>202.6</ele>
        <time>2025-01-04T13:23:48Z</time>
      </trkpt>
      <trkpt lat="50.18002" lon="4.17257">
        <ele>202.6</ele>
        <time>2025-01-04T13:23:58Z</time>
      </trkpt>
      <trkpt lat="50.18001" lon="4.17256">
        <ele>202.6</ele>
        <time>2025-01-04T13:23:59Z</time>
      </trkpt>
      <trkpt lat="50.17994" lon="4.17247">
        <ele>202.5</ele>
        <time>2025-01-04T13:24:09Z</time>
      </trkpt>
      <trkpt lat="50.17987" lon="4.17237">
        <ele>202.5</ele>
        <time>2025-01-04T13:24:19Z</time>
      </trkpt>
      <trkpt lat="50.17981" lon="4.17226">
        <ele>202.6</ele>
        <time>2025-01-04T13:24:29Z</time>
      </trkpt>
      <trkpt lat="50.17977" lon="4.17219">
        <ele>202.7</ele>
        <time>2025-01-04T13:24:39Z</time>
      </trkpt>
      <trkpt lat="50.17977" lon="4.17219">
        <ele>202.7</ele>
        <time>2025-01-04T13:24:40Z</time>
      </trkpt>
      <trkpt lat="50.17977" lon="4.17219">
        <ele>202.7</ele>
        <time>2025-01-04T13:24:46Z</time>
      </trkpt>
      <trkpt lat="50.17977" lon="4.17219">
        <ele>202.7</ele>
        <time>2025-01-04T13:24:47Z</time>
      </trkpt>
      <trkpt lat="50.17977" lon="4.17218">
        <ele>202.7</ele>
        <time>2025-01-04T13:24:48Z</time>
      </trkpt>
      <trkpt lat="50.17969" lon="4.1721">
        <ele>202.7</ele>
        <time>2025-01-04T13:25:01Z</time>
      </trkpt>
      <trkpt lat="50.17961" lon="4.17201">
        <ele>202.8</ele>
        <time>2025-01-04T13:25:12Z</time>
      </trkpt>
      <trkpt lat="50.17961" lon="4.172">
        <ele>202.8</ele>
        <time>2025-01-04T13:25:16Z</time>
      </trkpt>
      <trkpt lat="50.1796" lon="4.172">
        <ele>202.8</ele>
        <time>2025-01-04T13:25:17Z</time>
      </trkpt>
      <trkpt lat="50.1796" lon="4.17199">
        <ele>202.8</ele>
        <time>2025-01-04T13:25:18Z</time>
      </trkpt>
      <trkpt lat="50.17959" lon="4.17199">
        <ele>202.8</ele>
        <time>2025-01-04T13:25:19Z</time>
      </trkpt>
      <trkpt lat="50.17959" lon="4.17198">
        <ele>202.8</ele>
        <time>2025-01-04T13:25:20Z</time>
      </trkpt>
      <trkpt lat="50.1795" lon="4.17192">
        <ele>202.8</ele>
        <time>2025-01-04T13:25:34Z</time>
      </trkpt>
      <trkpt lat="50.17942" lon="4.17185">
        <ele>202.7</ele>
        <time>2025-01-04T13:25:45Z</time>
      </trkpt>
      <trkpt lat="50.17934" lon="4.17177">
        <ele>202.6</ele>
        <time>2025-01-04T13:25:56Z</time>
      </trkpt>
      <trkpt lat="50.17926" lon="4.1717">
        <ele>202.5</ele>
        <time>2025-01-04T13:26:10Z</time>
      </trkpt>
      <trkpt lat="50.17918" lon="4.17164">
        <ele>202.3</ele>
        <time>2025-01-04T13:26:24Z</time>
      </trkpt>
      <trkpt lat="50.17913" lon="4.1716">
        <ele>202.3</ele>
        <time>2025-01-04T13:26:31Z</time>
      </trkpt>
      <trkpt lat="50.17913" lon="4.1716">
        <ele>202.3</ele>
        <time>2025-01-04T13:26:32Z</time>
      </trkpt>
      <trkpt lat="50.17912" lon="4.1716">
        <ele>202.2</ele>
        <time>2025-01-04T13:26:33Z</time>
      </trkpt>
      <trkpt lat="50.17911" lon="4.17159">
        <ele>202.2</ele>
        <time>2025-01-04T13:26:36Z</time>
      </trkpt>
      <trkpt lat="50.17911" lon="4.17159">
        <ele>202.2</ele>
        <time>2025-01-04T13:26:37Z</time>
      </trkpt>
      <trkpt lat="50.1791" lon="4.17158">
        <ele>202.2</ele>
        <time>2025-01-04T13:26:38Z</time>
      </trkpt>
      <trkpt lat="50.17902" lon="4.1715">
        <ele>202.2</ele>
        <time>2025-01-04T13:26:50Z</time>
      </trkpt>
      <trkpt lat="50.17895" lon="4.17141">
        <ele>202.2</ele>
        <time>2025-01-04T13:26:58Z</time>
      </trkpt>
      <trkpt lat="50.17888" lon="4.17138">
        <ele>202.3</ele>
        <time>2025-01-04T13:27:09Z</time>
      </trkpt>
      <trkpt lat="50.17887" lon="4.17138">
        <ele>202.3</ele>
        <time>2025-01-04T13:27:10Z</time>
      </trkpt>
      <trkpt lat="50.17886" lon="4.17137">
        <ele>202.3</ele>
        <time>2025-01-04T13:27:11Z</time>
      </trkpt>
      <trkpt lat="50.17886" lon="4.17136">
        <ele>202.3</ele>
        <time>2025-01-04T13:27:12Z</time>
      </trkpt>
      <trkpt lat="50.17876" lon="4.17132">
        <ele>202.5</ele>
        <time>2025-01-04T13:27:23Z</time>
      </trkpt>
      <trkpt lat="50.17876" lon="4.17132">
        <ele>202.6</ele>
        <time>2025-01-04T13:27:28Z</time>
      </trkpt>
      <trkpt lat="50.17876" lon="4.17132">
        <ele>202.6</ele>
        <time>2025-01-04T13:27:29Z</time>
      </trkpt>
      <trkpt lat="50.17875" lon="4.17131">
        <ele>202.6</ele>
        <time>2025-01-04T13:27:30Z</time>
      </trkpt>
      <trkpt lat="50.17875" lon="4.17131">
        <ele>202.6</ele>
        <time>2025-01-04T13:27:31Z</time>
      </trkpt>
      <trkpt lat="50.17874" lon="4.1713">
        <ele>202.6</ele>
        <time>2025-01-04T13:27:32Z</time>
      </trkpt>
      <trkpt lat="50.17865" lon="4.17126">
        <ele>202.9</ele>
        <time>2025-01-04T13:27:45Z</time>
      </trkpt>
      <trkpt lat="50.17856" lon="4.17124">
        <ele>203.1</ele>
        <time>2025-01-04T13:27:56Z</time>
      </trkpt>
      <trkpt lat="50.17856" lon="4.17124">
        <ele>203.1</ele>
        <time>2025-01-04T13:27:58Z</time>
      </trkpt>
      <trkpt lat="50.17856" lon="4.17124">
        <ele>203.1</ele>
        <time>2025-01-04T13:27:59Z</time>
      </trkpt>
      <trkpt lat="50.17856" lon="4.17123">
        <ele>203.2</ele>
        <time>2025-01-04T13:28:03Z</time>
      </trkpt>
      <trkpt lat="50.17856" lon="4.17124">
        <ele>203.2</ele>
        <time>2025-01-04T13:28:04Z</time>
      </trkpt>
      <trkpt lat="50.17855" lon="4.17123">
        <ele>203.2</ele>
        <time>2025-01-04T13:28:05Z</time>
      </trkpt>
      <trkpt lat="50.17846" lon="4.17121">
        <ele>203.5</ele>
        <time>2025-01-04T13:28:22Z</time>
      </trkpt>
      <trkpt lat="50.17836" lon="4.1712">
        <ele>203.8</ele>
        <time>2025-01-04T13:28:34Z</time>
      </trkpt>
      <trkpt lat="50.1783" lon="4.1712">
        <ele>204</ele>
        <time>2025-01-04T13:28:40Z</time>
      </trkpt>
      <trkpt lat="50.1783" lon="4.1712">
        <ele>204.1</ele>
        <time>2025-01-04T13:28:41Z</time>
      </trkpt>
      <trkpt lat="50.1783" lon="4.1712">
        <ele>204.1</ele>
        <time>2025-01-04T13:28:42Z</time>
      </trkpt>
      <trkpt lat="50.17829" lon="4.1712">
        <ele>204.1</ele>
        <time>2025-01-04T13:28:48Z</time>
      </trkpt>
      <trkpt lat="50.17828" lon="4.1712">
        <ele>204.1</ele>
        <time>2025-01-04T13:28:49Z</time>
      </trkpt>
      <trkpt lat="50.17827" lon="4.17119">
        <ele>204.2</ele>
        <time>2025-01-04T13:28:50Z</time>
      </trkpt>
      <trkpt lat="50.17818" lon="4.17116">
        <ele>204.5</ele>
        <time>2025-01-04T13:29:00Z</time>
      </trkpt>
      <trkpt lat="50.17809" lon="4.17117">
        <ele>204.9</ele>
        <time>2025-01-04T13:29:08Z</time>
      </trkpt>
      <trkpt lat="50.17799" lon="4.17117">
        <ele>205.2</ele>
        <time>2025-01-04T13:29:26Z</time>
      </trkpt>
      <trkpt lat="50.1779" lon="4.17122">
        <ele>205.4</ele>
        <time>2025-01-04T13:29:32Z</time>
      </trkpt>
      <trkpt lat="50.17781" lon="4.17126">
        <ele>205.5</ele>
        <time>2025-01-04T13:29:42Z</time>
      </trkpt>
      <trkpt lat="50.17772" lon="4.17132">
        <ele>205.5</ele>
        <time>2025-01-04T13:29:50Z</time>
      </trkpt>
      <trkpt lat="50.17767" lon="4.1714">
        <ele>205.4</ele>
        <time>2025-01-04T13:30:06Z</time>
      </trkpt>
      <trkpt lat="50.17767" lon="4.1714">
        <ele>205.4</ele>
        <time>2025-01-04T13:30:07Z</time>
      </trkpt>
      <trkpt lat="50.17767" lon="4.1714">
        <ele>205.4</ele>
        <time>2025-01-04T13:30:20Z</time>
      </trkpt>
      <trkpt lat="50.17767" lon="4.17141">
        <ele>205.4</ele>
        <time>2025-01-04T13:30:21Z</time>
      </trkpt>
      <trkpt lat="50.17766" lon="4.17141">
        <ele>205.4</ele>
        <time>2025-01-04T13:30:22Z</time>
      </trkpt>
      <trkpt lat="50.17757" lon="4.17145">
        <ele>205.4</ele>
        <time>2025-01-04T13:30:33Z</time>
      </trkpt>
      <trkpt lat="50.17748" lon="4.17151">
        <ele>205.3</ele>
        <time>2025-01-04T13:30:42Z</time>
      </trkpt>
      <trkpt lat="50.17743" lon="4.17152">
        <ele>205.2</ele>
        <time>2025-01-04T13:30:55Z</time>
      </trkpt>
      <trkpt lat="50.17743" lon="4.17152">
        <ele>205.2</ele>
        <time>2025-01-04T13:30:56Z</time>
      </trkpt>
      <trkpt lat="50.17743" lon="4.17152">
        <ele>205.2</ele>
        <time>2025-01-04T13:30:57Z</time>
      </trkpt>
      <trkpt lat="50.1774" lon="4.1715">
        <ele>205.2</ele>
        <time>2025-01-04T13:31:01Z</time>
      </trkpt>
      <trkpt lat="50.17739" lon="4.17149">
        <ele>205.1</ele>
        <time>2025-01-04T13:31:02Z</time>
      </trkpt>
      <trkpt lat="50.17738" lon="4.17148">
        <ele>205.1</ele>
        <time>2025-01-04T13:31:03Z</time>
      </trkpt>
      <trkpt lat="50.17729" lon="4.17144">
        <ele>205</ele>
        <time>2025-01-04T13:31:13Z</time>
      </trkpt>
      <trkpt lat="50.1772" lon="4.17144">
        <ele>204.8</ele>
        <time>2025-01-04T13:31:30Z</time>
      </trkpt>
      <trkpt lat="50.17718" lon="4.17158">
        <ele>204.6</ele>
        <time>2025-01-04T13:31:41Z</time>
      </trkpt>
      <trkpt lat="50.17716" lon="4.17173">
        <ele>204.1</ele>
        <time>2025-01-04T13:31:55Z</time>
      </trkpt>
      <trkpt lat="50.17718" lon="4.17188">
        <ele>203.8</ele>
        <time>2025-01-04T13:32:07Z</time>
      </trkpt>
      <trkpt lat="50.17718" lon="4.1719">
        <ele>203.7</ele>
        <time>2025-01-04T13:32:11Z</time>
      </trkpt>
      <trkpt lat="50.17718" lon="4.1719">
        <ele>203.7</ele>
        <time>2025-01-04T13:32:12Z</time>
      </trkpt>
      <trkpt lat="50.17718" lon="4.17191">
        <ele>203.7</ele>
        <time>2025-01-04T13:32:13Z</time>
      </trkpt>
      <trkpt lat="50.17719" lon="4.17194">
        <ele>203.7</ele>
        <time>2025-01-04T13:32:16Z</time>
      </trkpt>
      <trkpt lat="50.17719" lon="4.17195">
        <ele>203.6</ele>
        <time>2025-01-04T13:32:17Z</time>
      </trkpt>
      <trkpt lat="50.17719" lon="4.17196">
        <ele>203.6</ele>
        <time>2025-01-04T13:32:18Z</time>
      </trkpt>
      <trkpt lat="50.1772" lon="4.17211">
        <ele>203.4</ele>
        <time>2025-01-04T13:32:30Z</time>
      </trkpt>
      <trkpt lat="50.17722" lon="4.17225">
        <ele>203.2</ele>
        <time>2025-01-04T13:32:43Z</time>
      </trkpt>
      <trkpt lat="50.17723" lon="4.1724">
        <ele>203</ele>
        <time>2025-01-04T13:32:53Z</time>
      </trkpt>
      <trkpt lat="50.17726" lon="4.17254">
        <ele>202.9</ele>
        <time>2025-01-04T13:33:03Z</time>
      </trkpt>
      <trkpt lat="50.17727" lon="4.17269">
        <ele>202.8</ele>
        <time>2025-01-04T13:33:18Z</time>
      </trkpt>
      <trkpt lat="50.17723" lon="4.17282">
        <ele>202.7</ele>
        <time>2025-01-04T13:33:35Z</time>
      </trkpt>
      <trkpt lat="50.17722" lon="4.17283">
        <ele>202.7</ele>
        <time>2025-01-04T13:33:41Z</time>
      </trkpt>
      <trkpt lat="50.17722" lon="4.17283">
        <ele>202.7</ele>
        <time>2025-01-04T13:33:42Z</time>
      </trkpt>
      <trkpt lat="50.17722" lon="4.17284">
        <ele>202.7</ele>
        <time>2025-01-04T13:33:43Z</time>
      </trkpt>
      <trkpt lat="50.17722" lon="4.17285">
        <ele>202.7</ele>
        <time>2025-01-04T13:33:46Z</time>
      </trkpt>
      <trkpt lat="50.17722" lon="4.17285">
        <ele>202.6</ele>
        <time>2025-01-04T13:33:47Z</time>
      </trkpt>
      <trkpt lat="50.17721" lon="4.17286">
        <ele>202.6</ele>
        <time>2025-01-04T13:33:48Z</time>
      </trkpt>
      <trkpt lat="50.17721" lon="4.17286">
        <ele>202.6</ele>
        <time>2025-01-04T13:34:30Z</time>
      </trkpt>
      <trkpt lat="50.17721" lon="4.17287">
        <ele>202.6</ele>
        <time>2025-01-04T13:34:31Z</time>
      </trkpt>
      <trkpt lat="50.17721" lon="4.17287">
        <ele>202.6</ele>
        <time>2025-01-04T13:34:35Z</time>
      </trkpt>
      <trkpt lat="50.17721" lon="4.17288">
        <ele>202.6</ele>
        <time>2025-01-04T13:34:35Z</time>
      </trkpt>
      <trkpt lat="50.17721" lon="4.17288">
        <ele>202.6</ele>
        <time>2025-01-04T13:34:35Z</time>
      </trkpt>
    </trkseg>
  </trk>
</gpx>